
Distance (Route):
Temperature : -52°C
Humidity : 3.6%
Pressure : 0hPa| Receiver | Frames | First received | Last received |
|---|---|---|---|
| DM0DOS-11 | 278 | 2026-09-02 00:13:44 | 2026-09-02 01:08:04 |
| DJ2DS-15 | 110 | 2026-09-02 00:22:59 | 2026-09-02 01:05:02 |
| BIOWL1-15 | 108 | 2026-09-02 00:19:53 | 2026-09-02 01:06:18 |
| DB0UT-7 | 44 | 2026-09-02 00:26:43 | 2026-09-02 01:04:23 |
| DL1XH-west | 44 | 2026-09-02 00:51:26 | 2026-09-02 00:59:43 |
| BIOWL9-15 | 17 | 2026-09-02 00:23:01 | 2026-09-02 01:02:22 |
| AU51GT2 | 5 | 2026-09-02 00:53:04 | 2026-09-02 00:58:15 |
| Receiver | Date | Latitude | Longitude | Direction | Speed | Altitude | Climb | Temperature | Humidity | Pressure | Voltage | Killtimer | Uptime | BKT | XDATA |
|---|---|---|---|---|---|---|---|---|---|---|---|---|---|---|---|
| DM0DOS-11 | 2026-09-02 01:08:04 | 52.79592 | -0.00156 | 102° | 57km/h | 15720m | -17.1m/s | -52°C | 3.6% | 0hPa | 2.5V | 08:20:24 | 02:17:56 | 00:00:00 | |
| DM0DOS-11 | 2026-09-02 01:07:58 | 52.79630 | -0.00373 | 106° | 49km/h | 15906m | -20.2m/s | -51°C | 3.2% | 0hPa | 2.6V | 08:20:34 | 02:17:46 | 00:00:00 | |
| DM0DOS-11 | 2026-09-02 01:07:48 | 52.79657 | -0.00556 | 98° | 38km/h | 16094m | -18.6m/s | -51.2°C | 3.2% | 0hPa | 2.5V | 08:20:44 | 02:17:36 | 00:00:00 | |
| DM0DOS-11 | 2026-09-02 01:07:38 | 52.79665 | -0.00735 | 90° | 44km/h | 16286m | -20.1m/s | -51.6°C | 3.3% | 0hPa | 2.6V | 08:20:54 | 02:17:26 | 00:00:00 | |
| DM0DOS-11 | 2026-09-02 01:07:26 | 52.79672 | -0.00909 | 95° | 46km/h | 16469m | -19.9m/s | -52°C | 3.3% | 0hPa | 2.6V | 08:21:04 | 02:17:16 | 00:00:00 | |
| DM0DOS-11 | 2026-09-02 01:07:14 | 52.79684 | -0.01123 | 91° | 55km/h | 16662m | -20.5m/s | -52.5°C | 3.4% | 0hPa | 2.5V | 08:21:14 | 02:17:06 | 00:00:00 | |
| DM0DOS-11 | 2026-09-02 01:07:04 | 52.79690 | -0.01334 | 86° | 51km/h | 16857m | -20.5m/s | -52.9°C | 3.6% | 0hPa | 2.5V | 08:21:24 | 02:16:56 | 00:00:00 | |
| DM0DOS-11 | 2026-09-02 01:06:54 | 52.79668 | -0.01551 | 80° | 53km/h | 17045m | -20.5m/s | -52.8°C | 3.6% | 0hPa | 2.5V | 08:21:34 | 02:16:46 | 00:00:00 | |
| DM0DOS-11 | 2026-09-02 01:06:44 | 52.79681 | -0.01775 | 104° | 55km/h | 17234m | -19.5m/s | -52°C | 3.4% | 0hPa | 2.5V | 08:21:44 | 02:16:36 | 00:00:00 | |
| DM0DOS-11 | 2026-09-02 01:06:26 | 52.79706 | -0.02156 | 92° | 46km/h | 17612m | -19.8m/s | -51.6°C | 3.3% | 0hPa | 2.6V | 08:22:04 | 02:16:16 | 00:00:00 | |
| BIOWL1-15 | 2026-09-02 01:06:18 | 52.79715 | -0.02268 | 97° | 44km/h | 17734m | -21.8m/s | -51.5°C | 0% | 0hPa | 2.5V | 08:22:20 | 02:16:10 | 00:00:00 | |
| BIOWL1-15 | 2026-09-02 01:06:10 | 52.79718 | -0.02462 | 90° | 46km/h | 17954m | -20.1m/s | 0°C | 0% | 0hPa | 2.5V | 18:12:15 | 02:15:59 | 00:00:00 | |
| BIOWL1-15 | 2026-09-02 01:05:57 | 52.79728 | -0.02622 | 106° | 40km/h | 18128m | -19.4m/s | 0°C | 0% | 0hPa | 2.6V | 18:12:15 | 02:15:50 | 00:00:00 | |
| DM0DOS-11 | 2026-09-02 01:05:54 | 52.79740 | -0.02681 | 113° | 31km/h | 18204m | -20.3m/s | -51.6°C | 3.1% | 0hPa | 2.6V | 08:22:34 | 02:15:46 | 00:00:00 | |
| BIOWL1-15 | 2026-09-02 01:05:47 | 52.79762 | -0.02748 | 122° | 26km/h | 18336m | -24.1m/s | 0°C | 0% | 0hPa | 2.6V | 18:12:15 | 02:15:40 | 00:00:00 | |
| DM0DOS-11 | 2026-09-02 01:05:44 | 52.79774 | -0.02791 | 108° | 31km/h | 18419m | -18.1m/s | -52.6°C | 3.4% | 0hPa | 2.5V | 08:22:44 | 02:15:36 | 00:00:00 | |
| DM0DOS-11 | 2026-09-02 01:05:34 | 52.79798 | -0.02933 | 103° | 38km/h | 18620m | -23.6m/s | -53.3°C | 3.6% | 0hPa | 2.5V | 08:22:54 | 02:15:26 | 00:00:00 | |
| DM0DOS-11 | 2026-09-02 01:05:24 | 52.79820 | -0.03091 | 97° | 38km/h | 18844m | -20.3m/s | -53.2°C | 3.7% | 0hPa | 2.5V | 08:23:04 | 02:15:16 | 00:00:00 | |
| DM0DOS-11 | 2026-09-02 01:05:14 | 52.79827 | -0.03242 | 88° | 29km/h | 19045m | -21.3m/s | -51.7°C | 3.3% | 0hPa | 2.5V | 08:23:14 | 02:15:06 | 00:00:00 | |
| DM0DOS-11 | 2026-09-02 01:05:04 | 52.79815 | -0.03369 | 78° | 37km/h | 19227m | -20.2m/s | -52.2°C | 3.6% | 0hPa | 2.5V | 08:23:24 | 02:14:56 | 00:00:00 | |
| DJ2DS-15 | 2026-09-02 01:05:02 | 52.79813 | -0.03385 | 80° | 20km/h | 19247m | -20.7m/s | -52.2°C | 3.6% | 0hPa | 2.5V | 00:00:00 | 02:14:55 | 00:00:00 | |
| DJ2DS-15 | 2026-09-02 01:05:00 | 52.79809 | -0.03437 | 85° | 44km/h | 19309m | -20.8m/s | -52.1°C | 0.6% | -1.0hPa | 2.5V | 00:00:00 | 00:00:00 | 00:00:00 | |
| DM0DOS-11 | 2026-09-02 01:04:54 | 52.79807 | -0.03559 | 91° | 40km/h | 19439m | -16.6m/s | -51.1°C | 3.4% | 0hPa | 2.5V | 08:23:35 | 02:14:45 | 00:00:00 | |
| DM0DOS-11 | 2026-09-02 01:04:44 | 52.79809 | -0.03713 | 86° | 33km/h | 19647m | -21m/s | -49.4°C | 2.9% | 0hPa | 2.5V | 08:23:45 | 02:14:35 | 00:00:00 | |
| DB0UT-7 | 2026-09-02 01:04:23 | 52.79830 | -0.03836 | 104° | 22km/h | 20039m | -22.5m/s | -50.0°C | 2.9% | 0hPa | 2.5V | 00:00:00 | 00:00:00 | 00:00:00 | |
| DM0DOS-11 | 2026-09-02 01:04:04 | 52.79853 | -0.04005 | 106° | 26km/h | 20465m | -23.9m/s | -52.1°C | 3.4% | 0hPa | 2.5V | 08:24:24 | 02:13:56 | 00:00:00 | |
| DM0DOS-11 | 2026-09-02 01:03:58 | 52.79858 | -0.04099 | 71° | 26km/h | 20686m | -21.4m/s | -51.9°C | 3.5% | 0hPa | 2.6V | 08:24:34 | 02:13:46 | 00:00:00 | |
| DB0UT-7 | 2026-09-02 01:03:53 | 52.79857 | -0.04099 | 72° | 26km/h | 20687m | -21.3m/s | -51.8°C | 3.5% | 0hPa | 2.6V | 00:00:00 | 02:13:46 | 00:00:00 | |
| DM0DOS-11 | 2026-09-02 01:03:48 | 52.79844 | -0.04232 | 93° | 22km/h | 20894m | -19.1m/s | -50.6°C | 3.1% | 0hPa | 2.6V | 08:24:45 | 02:13:35 | 00:00:00 | |
| DM0DOS-11 | 2026-09-02 01:03:36 | 52.79853 | -0.04282 | 106° | 7km/h | 21101m | -25.2m/s | -50.2°C | 2.8% | 0hPa | 2.6V | 08:24:54 | 02:13:26 | 00:00:00 | |
| DJ2DS-15 | 2026-09-02 01:03:11 | 52.79816 | -0.04411 | 77° | 26km/h | 21620m | -28.8m/s | -52.3°C | 0.5% | -1.0hPa | 2.6V | 00:00:00 | 00:00:00 | 00:00:00 | |
| DB0UT-7 | 2026-09-02 01:02:53 | 52.79778 | -0.04594 | 67° | 18km/h | 22061m | -22.0m/s | -51.2°C | 3.2% | 0hPa | 2.6V | 00:00:00 | 00:00:00 | 00:00:00 | |
| BIOWL1-15 | 2026-09-02 01:02:37 | 52.79785 | -0.04767 | 145° | 13km/h | 22451m | -26.4m/s | -50.4°C | 0% | 0hPa | 2.6V | 08:28:17 | 02:12:28 | 00:00:00 | |
| DM0DOS-11 | 2026-09-02 01:02:34 | 52.79791 | -0.04773 | 158° | 5km/h | 22527m | -25.1m/s | -50.5°C | 3% | 0hPa | 2.5V | 08:25:55 | 02:12:25 | 00:00:00 | |
| DM0DOS-11 | 2026-09-02 01:02:27 | 52.79796 | -0.04814 | 79° | 18km/h | 22775m | -28.7m/s | -51.7°C | 3.3% | 0hPa | 2.5V | 08:26:05 | 02:12:15 | 00:00:00 | |
| BIOWL1-15 | 2026-09-02 01:02:24 | 52.79797 | -0.04801 | 87° | 16km/h | 22724m | -24.9m/s | -51.5°C | 0% | 0hPa | 2.6V | 08:28:17 | 02:12:17 | 00:00:00 | |
| DB0UT-7 | 2026-09-02 01:02:23 | 52.79797 | -0.04807 | 81° | 16km/h | 22749m | -26.3m/s | -51.6°C | 3.2% | 0hPa | 2.5V | 08:26:00 | 02:12:16 | 00:00:00 | |
| BIOWL9-15 | 2026-09-02 01:02:22 | 52.79796 | -0.04823 | 83° | 22km/h | 22802m | -25.9m/s | -51.8°C | 0.4% | -1.0hPa | 2.5V | 00:00:00 | 00:00:00 | 00:00:00 | |
| DM0DOS-11 | 2026-09-02 01:02:15 | 52.79799 | -0.04900 | 107° | 16km/h | 23037m | -26.9m/s | -51.6°C | 3.4% | 0hPa | 2.5V | 08:26:15 | 02:12:05 | 00:00:00 | |
| BIOWL1-15 | 2026-09-02 01:02:14 | 52.79797 | -0.04885 | 99° | 18km/h | 22984m | -28.6m/s | -51.9°C | 0% | 0hPa | 2.6V | 08:28:17 | 02:12:07 | 00:00:00 | |
| BIOWL1-15 | 2026-09-02 01:02:03 | 52.79796 | -0.04936 | 59° | 13km/h | 23290m | -29.9m/s | -50.9°C | 0% | 0hPa | 2.5V | 08:28:17 | 02:11:56 | 00:00:00 | |
| DM0DOS-11 | 2026-09-02 01:02:03 | 52.79789 | -0.04951 | 43° | 16km/h | 23379m | -31m/s | -51.3°C | 3.3% | 0hPa | 2.6V | 08:26:27 | 02:11:53 | 00:00:00 | |
| BIOWL1-15 | 2026-09-02 01:01:53 | 52.79771 | -0.04994 | 71° | 20km/h | 23591m | -30.9m/s | -50.9°C | 0% | 0hPa | 2.5V | 08:28:17 | 02:11:46 | 00:00:00 | |
| DB0UT-7 | 2026-09-02 01:01:53 | 52.79771 | -0.04994 | 71° | 20km/h | 23592m | -30.8m/s | -50.8°C | 3.1% | 0hPa | 2.6V | 00:00:00 | 00:00:00 | 00:00:00 | |
| DM0DOS-11 | 2026-09-02 01:01:52 | 52.79767 | -0.05021 | 78° | 22km/h | 23681m | -30.4m/s | -50.9°C | 3.1% | 0hPa | 2.6V | 08:26:37 | 02:11:43 | 00:00:00 | |
| DM0DOS-11 | 2026-09-02 01:01:43 | 52.79771 | -0.05078 | 115° | 0km/h | 23950m | -25.8m/s | -50.6°C | 3.1% | 0hPa | 2.6V | 08:26:47 | 02:11:33 | 00:00:00 | |
| DM0DOS-11 | 2026-09-02 01:01:32 | 52.79774 | -0.05096 | 82° | 9km/h | 24240m | -30m/s | -50.8°C | 3.2% | 0hPa | 2.6V | 08:26:57 | 02:11:23 | 00:00:00 | |
| BIOWL1-15 | 2026-09-02 01:01:23 | 52.79773 | -0.05123 | 88° | 9km/h | 24496m | -35.1m/s | -50.3°C | 0% | 0hPa | 2.5V | 08:28:17 | 02:11:15 | 00:00:00 | |
| DM0DOS-11 | 2026-09-02 01:01:23 | 52.79774 | -0.05131 | 101° | 11km/h | 24562m | -33.5m/s | -50.4°C | 3.1% | 0hPa | 2.6V | 08:27:07 | 02:11:13 | 00:00:00 | |
| DB0UT-7 | 2026-09-02 01:01:17 | 52.79777 | -0.05144 | 115° | 13km/h | 24660m | -30.6m/s | -50.2°C | 3.1% | 0hPa | 2.6V | 00:00:00 | 02:11:10 | 00:00:00 | |
| DM0DOS-11 | 2026-09-02 01:01:14 | 52.79783 | -0.05174 | 94° | 11km/h | 24851m | -27.4m/s | -49.7°C | 2.9% | 0hPa | 2.6V | 08:27:17 | 02:11:03 | 00:00:00 | |
| DJ2DS-15 | 2026-09-02 01:01:10 | 52.79783 | -0.05174 | 95° | 11km/h | 24851m | -27.3m/s | -49.6°C | 2.9% | 0hPa | 2.6V | 00:00:00 | 02:11:03 | 00:00:00 | |
| DM0DOS-11 | 2026-09-02 01:01:03 | 52.79779 | -0.05222 | 90° | 9km/h | 25117m | -25.1m/s | -49.8°C | 3% | 0hPa | 2.6V | 08:27:27 | 02:10:53 | 00:00:00 | |
| DM0DOS-11 | 2026-09-02 01:00:52 | 52.79805 | -0.05256 | 168° | 20km/h | 25368m | -28.5m/s | -49.5°C | 2.9% | 0hPa | 2.6V | 08:27:37 | 02:10:43 | 00:00:00 | |
| DJ2DS-15 | 2026-09-02 01:00:48 | 52.79819 | -0.05257 | 192° | 15km/h | 25455m | -29.5m/s | -49.1°C | 0.3% | -1.0hPa | 2.5V | 00:00:00 | 00:00:00 | 00:00:00 | |
| BIOWL1-15 | 2026-09-02 01:00:44 | 52.79835 | -0.05247 | 47° | 4km/h | 25750m | -28.5m/s | -49.6°C | 0% | 0hPa | 2.5V | 08:28:17 | 02:10:29 | 00:00:00 | |
| DM0DOS-11 | 2026-09-02 01:00:42 | 52.79834 | -0.05246 | 245° | 2km/h | 25646m | -27.3m/s | -50°C | 3.1% | 0hPa | 2.6V | 08:27:47 | 02:10:33 | 00:00:00 | |
| BIOWL1-15 | 2026-09-02 01:00:31 | 52.79835 | -0.05264 | 107° | 11km/h | 25889m | -27.4m/s | -49.2°C | 0% | 0hPa | 2.5V | 08:28:17 | 02:10:24 | 00:00:00 | |
| DJ2DS-15 | 2026-09-02 01:00:28 | 52.79837 | -0.05275 | 121° | 11km/h | 25968m | -26.4m/s | -49.0°C | 2.9% | 0hPa | 2.6V | 00:00:00 | 02:10:21 | 00:00:00 | |
| DM0DOS-11 | 2026-09-02 01:00:25 | 52.79844 | -0.05298 | 98° | 13km/h | 26156m | -31.3m/s | -48.6°C | 2.8% | 0hPa | 2.6V | 08:28:07 | 02:10:13 | 00:00:00 | |
| DB0UT-7 | 2026-09-02 01:00:17 | 52.79844 | -0.05316 | 88° | 11km/h | 26247m | -27.0m/s | -48.4°C | 2.9% | 0hPa | 2.6V | 00:00:00 | 02:10:10 | 00:00:00 | |
| DM0DOS-11 | 2026-09-02 01:00:14 | 52.79851 | -0.05347 | 146° | 11km/h | 26451m | -29.2m/s | -48.2°C | 2.8% | 0hPa | 2.6V | 08:28:17 | 02:10:03 | 00:00:00 | |
| BIOWL1-15 | 2026-09-02 01:00:14 | 52.79845 | -0.05332 | 106° | 15km/h | 26327m | -28.9m/s | -48.1°C | 0% | 0hPa | 2.6V | 08:28:17 | 02:10:07 | 00:00:00 | |
| BIOWL1-15 | 2026-09-02 01:00:10 | 52.79879 | -0.05344 | 198° | 20km/h | 26675m | -31.6m/s | -47.6°C | 0% | 0hPa | 2.5V | 08:29:08 | 02:09:55 | 00:00:00 | |
| DJ2DS-15 | 2026-09-02 01:00:08 | 52.79856 | -0.05351 | 173° | 13km/h | 26508m | -29.2m/s | -48.1°C | 2.8% | 0hPa | 2.6V | 00:00:00 | 02:10:01 | 00:00:00 | |
| DM0DOS-11 | 2026-09-02 01:00:03 | 52.79887 | -0.05339 | 205° | 16km/h | 26743m | -34.9m/s | -47.8°C | 2.7% | 0hPa | 2.6V | 08:28:27 | 02:09:53 | 00:00:00 | |
| DM0DOS-11 | 2026-09-02 00:59:55 | 52.79890 | -0.05303 | 341° | 9km/h | 27109m | -37.3m/s | -48.2°C | 2.8% | 0hPa | 2.6V | 08:28:37 | 02:09:43 | 00:00:00 | |
| DJ2DS-15 | 2026-09-02 00:59:48 | 52.79886 | -0.05303 | 13° | 7km/h | 27181m | -37.0m/s | -48.4°C | 2.8% | 0hPa | 2.5V | 08:28:00 | 02:09:41 | 00:00:00 | |
| DM0DOS-11 | 2026-09-02 00:59:44 | 52.79868 | -0.05318 | 46° | 5km/h | 27472m | -36.6m/s | -48.2°C | 2.8% | 0hPa | 2.6V | 08:28:47 | 02:09:33 | 00:00:00 | |
| DL1XH-west | 2026-09-02 00:59:43 | 52.79872 | -0.05312 | 39° | 9km/h | 27362m | -37.6m/s | -48.3°C | 0% | 0hPa | 2.5V | 08:29:59 | 02:09:36 | 00:00:00 | |
| DB0UT-7 | 2026-09-02 00:59:39 | 52.79867 | -0.05320 | 63° | 7km/h | 27509m | -37.8m/s | -48.0°C | 2.7% | 0hPa | 2.6V | 00:00:00 | 00:00:00 | 00:00:00 | |
| DM0DOS-11 | 2026-09-02 00:59:34 | 52.79871 | -0.05310 | 223° | 7km/h | 27803m | -26.1m/s | -48.5°C | 3% | 0hPa | 2.6V | 08:28:57 | 02:09:23 | 00:00:00 | |
| DL1XH-west | 2026-09-02 00:59:32 | 52.79869 | -0.05315 | 215° | 7km/h | 27750m | -28.8m/s | -48.5°C | 0% | 0hPa | 2.5V | 08:29:59 | 02:09:25 | 00:00:00 | |
| BIOWL1-15 | 2026-09-02 00:59:29 | 52.79873 | -0.05307 | 240° | 11km/h | 27830m | -29.8m/s | -48.3°C | 0% | 0hPa | 2.6V | 08:29:08 | 02:09:22 | 00:00:00 | |
| DJ2DS-15 | 2026-09-02 00:59:28 | 52.79875 | -0.05301 | 250° | 13km/h | 27861m | -32.2m/s | -48.1°C | 2.9% | 0hPa | 2.6V | 00:00:00 | 02:09:21 | 00:00:00 | |
| DM0DOS-11 | 2026-09-02 00:59:24 | 52.79875 | -0.05253 | 310° | 11km/h | 28154m | -38.7m/s | -47.1°C | 2.6% | 0hPa | 2.6V | 08:29:07 | 02:09:13 | 00:00:00 | |
| BIOWL1-15 | 2026-09-02 00:59:18 | 52.79859 | -0.05233 | 326° | 7km/h | 28390m | -33m/s | -47.1°C | 0% | 0hPa | 2.5V | 08:29:59 | 02:09:06 | 00:00:00 | |
| DM0DOS-11 | 2026-09-02 00:59:14 | 52.79856 | -0.05224 | 317° | 5km/h | 28469m | -22.7m/s | -47.1°C | 2.7% | 0hPa | 2.6V | 08:29:17 | 02:09:03 | 00:00:00 | |
| DJ2DS-15 | 2026-09-02 00:59:08 | 52.79855 | -0.05222 | 117° | 7km/h | 28522m | -30.9m/s | -46.8°C | 2.7% | 0hPa | 2.6V | 00:00:00 | 02:09:01 | 00:00:00 | |
| DM0DOS-11 | 2026-09-02 00:59:04 | 52.79861 | -0.05238 | 131° | 7km/h | 28764m | -32.9m/s | -46.3°C | 2.6% | 0hPa | 2.6V | 08:29:27 | 02:08:53 | 00:00:00 | |
| DM0DOS-11 | 2026-09-02 00:58:52 | 52.79872 | -0.05217 | 246° | 7km/h | 29114m | -41.4m/s | -45.5°C | 2.4% | 0hPa | 2.6V | 08:29:37 | 02:08:43 | 00:00:00 | |
| BIOWL1-15 | 2026-09-02 00:58:49 | 52.79873 | -0.05214 | 228° | 7km/h | 29155m | -40.8m/s | -45.3°C | 0% | 0hPa | 2.6V | 08:29:59 | 02:08:42 | 00:00:00 | |
| DJ2DS-15 | 2026-09-02 00:58:48 | 52.79875 | -0.05212 | 211° | 7km/h | 29195m | -39.4m/s | -45.2°C | 2.4% | 0hPa | 2.5V | 00:00:00 | 02:08:41 | 00:00:00 | |
| DB0UT-7 | 2026-09-02 00:58:44 | 52.79879 | -0.05206 | 199° | 11km/h | 29338m | -32.7m/s | -45.1°C | 2.4% | 0hPa | 2.6V | 00:00:00 | 02:08:37 | 00:00:00 | |
| DM0DOS-11 | 2026-09-02 00:58:43 | 52.79882 | -0.05201 | 241° | 2km/h | 29475m | -33.5m/s | -45.2°C | 2.4% | 0hPa | 2.6V | 08:29:47 | 02:08:33 | 00:00:00 | |
| DL1XH-west | 2026-09-02 00:58:41 | 52.79882 | -0.05203 | 259° | 7km/h | 29441m | -35.2m/s | -45.2°C | 0% | 0hPa | 2.5V | 08:29:59 | 02:08:34 | 00:00:00 | |
| BIOWL1-15 | 2026-09-02 00:58:35 | 52.79885 | -0.05187 | 288° | 9km/h | 29687m | -38.1m/s | 0°C | 0% | 0hPa | 2.5V | 08:29:59 | 02:08:26 | 00:00:00 | |
| DM0DOS-11 | 2026-09-02 00:58:33 | 52.79882 | -0.05176 | 297° | 9km/h | 29800m | -36.2m/s | -45.3°C | 2.5% | 0hPa | 2.6V | 08:29:57 | 02:08:23 | 00:00:00 | |
| DL1XH-west | 2026-09-02 00:58:30 | 52.79882 | -0.05176 | 298° | 9km/h | 29800m | -36.2m/s | -45.3°C | 0% | 0hPa | 2.6V | 08:29:59 | 02:08:23 | 00:00:00 | |
| DJ2DS-15 | 2026-09-02 00:58:28 | 52.79879 | -0.05168 | 306° | 18km/h | 29867m | -31.9m/s | -45.3°C | 2.5% | 0hPa | 2.6V | 00:00:00 | 02:08:21 | 00:00:00 | |
| DM0DOS-11 | 2026-09-02 00:58:23 | 52.79854 | -0.05139 | 335° | 26km/h | 30076m | -24.6m/s | -44.5°C | 2.4% | 0hPa | 2.6V | 08:30:00 | 02:08:13 | 00:00:00 | |
| DL1XH-west | 2026-09-02 00:58:20 | 52.79854 | -0.05139 | 336° | 26km/h | 30076m | -24.6m/s | -44.5°C | 0% | 0hPa | 2.6V | 18:12:15 | 02:08:13 | 00:00:00 | |
| AU51GT2 | 2026-09-02 00:58:15 | 52.79817 | -0.05132 | 22° | 24km/h | 30243m | -31.6m/s | -44.0°C | 0.2% | -1.0hPa | 2.5V | 00:00:00 | 00:00:00 | 00:00:00 | |
| DB0UT-7 | 2026-09-02 00:58:14 | 52.79817 | -0.05132 | 23° | 11km/h | 30243m | -31.5m/s | -44.0°C | 2.2% | 0hPa | 2.5V | 00:00:00 | 00:00:00 | 00:00:00 | |
| DM0DOS-11 | 2026-09-02 00:58:13 | 52.79799 | -0.05147 | 26° | 15km/h | 30359m | -24.8m/s | -44.2°C | 2.3% | 0hPa | 2.5V | 08:30:00 | 02:08:03 | 00:00:00 | |
| DL1XH-west | 2026-09-02 00:58:09 | 52.79796 | -0.05149 | 19° | 11km/h | 30384m | -25.3m/s | -44.2°C | 0% | 0hPa | 2.5V | 18:12:15 | 02:08:02 | 00:00:00 | |
| DJ2DS-15 | 2026-09-02 00:58:08 | 52.79794 | -0.05148 | 330° | 18km/h | 30409m | -23.7m/s | -44.1°C | 2.3% | 0hPa | 2.5V | 00:00:00 | 02:08:01 | 00:00:00 | |
| DM0DOS-11 | 2026-09-02 00:58:03 | 52.79761 | -0.05117 | 5° | 24km/h | 30610m | -25m/s | -44°C | 2.2% | 0hPa | 2.5V | 08:30:00 | 02:07:53 | 00:00:00 | |
| DL1XH-west | 2026-09-02 00:57:59 | 52.79755 | -0.05118 | 6° | 24km/h | 30631m | -17m/s | -44.1°C | 0% | 0hPa | 2.5V | 18:12:15 | 02:07:52 | 00:00:00 | |
| DM0DOS-11 | 2026-09-02 00:57:53 | 52.79716 | -0.05129 | 40° | 11km/h | 30609m | 6.4m/s | -44.1°C | 2.3% | 0hPa | 2.5V | 08:30:00 | 02:07:43 | 00:00:00 | |
| DL1XH-west | 2026-09-02 00:57:48 | 52.79712 | -0.05136 | 34° | 13km/h | 30599m | 4.5m/s | -44.2°C | 0% | 0hPa | 2.5V | 18:12:15 | 02:07:41 | 00:00:00 | |
| DJ2DS-15 | 2026-09-02 00:57:48 | 52.79712 | -0.05136 | 35° | 16km/h | 30599m | 4.4m/s | -44.1°C | 2.3% | 0hPa | 2.5V | 00:00:00 | 02:07:41 | 00:00:00 | |
| DM0DOS-11 | 2026-09-02 00:57:44 | 52.79670 | -0.05134 | 23° | 18km/h | 30555m | 5.3m/s | -44.2°C | 2.3% | 0hPa | 2.6V | 08:30:00 | 02:07:33 | 00:00:00 | |
| DL1XH-west | 2026-09-02 00:57:38 | 52.79662 | -0.05140 | 30° | 13km/h | 30544m | 6.2m/s | -44.3°C | 0% | 0hPa | 2.5V | 18:12:15 | 02:07:31 | 00:00:00 | |
| DM0DOS-11 | 2026-09-02 00:57:31 | 52.79644 | -0.05160 | 346° | 20km/h | 30499m | 6m/s | -44.5°C | 2.3% | 0hPa | 2.5V | 08:30:00 | 02:07:23 | 00:00:00 | |
| DL1XH-west | 2026-09-02 00:57:27 | 52.79627 | -0.05152 | 349° | 24km/h | 30483m | 6.1m/s | -44.5°C | 0% | 0hPa | 2.5V | 18:12:15 | 02:07:20 | 00:00:00 | |
| DM0DOS-11 | 2026-09-02 00:57:24 | 52.79602 | -0.05163 | 5° | 15km/h | 30446m | 5.2m/s | -44.6°C | 2.4% | 0hPa | 2.5V | 08:30:00 | 02:07:13 | 00:00:00 | |
| DL1XH-west | 2026-09-02 00:57:18 | 52.79588 | -0.05167 | 19° | 18km/h | 30430m | 5.4m/s | -44.7°C | 0% | 0hPa | 2.5V | 18:12:15 | 02:07:10 | 00:00:00 | |
| DM0DOS-11 | 2026-09-02 00:57:13 | 52.79562 | -0.05161 | 345° | 22km/h | 30393m | 4.5m/s | -44.6°C | 2.3% | 0hPa | 2.5V | 08:30:00 | 02:07:03 | 00:00:00 | |
| DL1XH-west | 2026-09-02 00:57:07 | 52.79547 | -0.05165 | 35° | 20km/h | 30376m | 5.6m/s | -44.5°C | 0% | 0hPa | 2.6V | 18:12:15 | 02:07:00 | 00:00:00 | |
| DM0DOS-11 | 2026-09-02 00:57:03 | 52.79522 | -0.05177 | 346° | 22km/h | 30338m | 6.1m/s | -44.6°C | 2.4% | 0hPa | 2.6V | 08:30:00 | 02:06:53 | 00:00:00 | |
| DL1XH-west | 2026-09-02 00:56:57 | 52.79504 | -0.05172 | 352° | 24km/h | 30321m | 5.1m/s | -44.6°C | 0% | 0hPa | 2.5V | 18:12:15 | 02:06:50 | 00:00:00 | |
| DM0DOS-11 | 2026-09-02 00:56:53 | 52.79471 | -0.05175 | 31° | 18km/h | 30279m | 5.5m/s | -44.6°C | 2.3% | 0hPa | 2.6V | 08:30:00 | 02:06:43 | 00:00:00 | |
| DL1XH-west | 2026-09-02 00:56:46 | 52.79453 | -0.05177 | 349° | 22km/h | 30257m | 5.5m/s | -44.6°C | 0% | 0hPa | 2.6V | 18:12:15 | 02:06:39 | 00:00:00 | |
| DL1XH-west | 2026-09-02 00:56:35 | 52.79387 | -0.05151 | 0° | 13km/h | 30193m | 4.9m/s | -44.6°C | 0% | 0hPa | 2.6V | 18:12:15 | 02:06:28 | 00:00:00 | |
| DJ2DS-15 | 2026-09-02 00:56:35 | 52.79384 | -0.05151 | 352° | 11km/h | 30187m | 6.2m/s | -44.6°C | 0.2% | -1.0hPa | 2.5V | 00:00:00 | 00:00:00 | 00:00:00 | |
| DM0DOS-11 | 2026-09-02 00:56:33 | 52.79375 | -0.05139 | 323° | 16km/h | 30163m | 6m/s | -44.7°C | 2.3% | 0hPa | 2.5V | 08:30:00 | 02:06:23 | 00:00:00 | |
| DL1XH-west | 2026-09-02 00:56:24 | 52.79344 | -0.05114 | 319° | 26km/h | 30127m | 5.6m/s | -45.2°C | 0% | 0hPa | 2.5V | 18:12:15 | 02:06:17 | 00:00:00 | |
| DM0DOS-11 | 2026-09-02 00:56:23 | 52.79326 | -0.05090 | 319° | 18km/h | 30103m | 5m/s | -45.4°C | 2.4% | 0hPa | 2.5V | 08:30:00 | 02:06:13 | 00:00:00 | |
| DL1XH-west | 2026-09-02 00:56:13 | 52.79303 | -0.05060 | 349° | 26km/h | 30062m | 5.2m/s | -45.6°C | 0% | 0hPa | 2.6V | 18:12:15 | 02:06:06 | 00:00:00 | |
| DM0DOS-11 | 2026-09-02 00:56:13 | 52.79287 | -0.05050 | 317° | 16km/h | 30046m | 6.6m/s | -45.5°C | 2.4% | 0hPa | 2.5V | 08:30:00 | 02:06:03 | 00:00:00 | |
| AU51GT2 | 2026-09-02 00:56:10 | 52.79287 | -0.05050 | 317° | 16km/h | 30046m | 6.6m/s | -45.6°C | 0.2% | -1.0hPa | 2.6V | 00:00:00 | 00:00:00 | 00:00:00 | |
| DJ2DS-15 | 2026-09-02 00:56:08 | 52.79284 | -0.05038 | 269° | 16km/h | 30034m | 5.4m/s | -45.5°C | 2.4% | 0hPa | 2.6V | 00:00:00 | 02:06:01 | 00:00:00 | |
| DM0DOS-11 | 2026-09-02 00:56:02 | 52.79276 | -0.04992 | 287° | 26km/h | 29987m | 5.7m/s | -45.7°C | 2.4% | 0hPa | 2.6V | 08:30:00 | 02:05:53 | 00:00:00 | |
| DL1XH-west | 2026-09-02 00:56:02 | 52.79280 | -0.05008 | 303° | 16km/h | 30000m | 5.8m/s | -45.6°C | 0% | 0hPa | 2.5V | 18:12:15 | 02:05:55 | 00:00:00 | |
| BIOWL1-15 | 2026-09-02 00:56:01 | 52.79274 | -0.04982 | 288° | 29km/h | 29982m | 5m/s | -45.7°C | 0% | 0hPa | 2.6V | 18:12:15 | 02:05:52 | 00:00:00 | |
| DJ2DS-15 | 2026-09-02 00:55:59 | 52.79272 | -0.04970 | 291° | 29km/h | 29977m | 5.4m/s | -45.7°C | 0.2% | -1.0hPa | 2.6V | 00:00:00 | 00:00:00 | 00:00:00 | |
| DM0DOS-11 | 2026-09-02 00:55:52 | 52.79259 | -0.04919 | 202° | 7km/h | 29932m | 5.4m/s | -45.7°C | 2.4% | 0hPa | 2.6V | 08:30:00 | 02:05:43 | 00:00:00 | |
| DL1XH-west | 2026-09-02 00:55:51 | 52.79257 | -0.04921 | 219° | 9km/h | 29937m | 5.1m/s | -45.7°C | 0% | 0hPa | 2.5V | 18:12:15 | 02:05:44 | 00:00:00 | |
| DJ2DS-15 | 2026-09-02 00:55:48 | 52.79261 | -0.04919 | 99° | 9km/h | 29920m | 5.7m/s | -45.7°C | 2.5% | 0hPa | 2.5V | 00:00:00 | 02:05:41 | 00:00:00 | |
| DM0DOS-11 | 2026-09-02 00:55:43 | 52.79256 | -0.04883 | 289° | 9km/h | 29875m | 6.2m/s | -45.8°C | 2.5% | 0hPa | 2.5V | 08:30:00 | 02:05:33 | 00:00:00 | |
| DL1XH-west | 2026-09-02 00:55:41 | 52.79256 | -0.04888 | 274° | 15km/h | 29881m | 5.4m/s | -45.8°C | 0% | 0hPa | 2.5V | 18:12:15 | 02:05:34 | 00:00:00 | |
| AU51GT2 | 2026-09-02 00:55:39 | 52.79254 | -0.04881 | 342° | 5km/h | 29869m | 6.1m/s | -45.8°C | 0.2% | -1.0hPa | 2.5V | 00:00:00 | 00:00:00 | 00:00:00 | |
| BIOWL9-15 | 2026-09-02 00:55:38 | 52.79252 | -0.04885 | 243° | 7km/h | 29830m | 5.4m/s | -45.7°C | 0.3% | -1.0hPa | 2.5V | 00:00:00 | 00:00:00 | 00:00:00 | |
| DM0DOS-11 | 2026-09-02 00:55:33 | 52.79253 | -0.04880 | 273° | 5km/h | 29818m | 5.6m/s | -45.7°C | 2.5% | 0hPa | 2.5V | 08:30:00 | 02:05:23 | 00:00:00 | |
| DL1XH-west | 2026-09-02 00:55:30 | 52.79253 | -0.04880 | 273° | 5km/h | 29818m | 5.6m/s | -45.7°C | 0% | 0hPa | 2.5V | 18:12:15 | 02:05:23 | 00:00:00 | |
| BIOWL1-15 | 2026-09-02 00:55:27 | 52.79252 | -0.04869 | 264° | 11km/h | 29801m | 6.8m/s | -45.7°C | 0% | 0hPa | 2.6V | 18:12:15 | 02:05:20 | 00:00:00 | |
| DM0DOS-11 | 2026-09-02 00:55:23 | 52.79250 | -0.04851 | 47° | 7km/h | 29763m | 4.7m/s | -45.6°C | 2.4% | 0hPa | 2.5V | 08:30:00 | 02:05:13 | 00:00:00 | |
| DL1XH-west | 2026-09-02 00:55:20 | 52.79250 | -0.04851 | 48° | 7km/h | 29763m | 4.7m/s | -45.6°C | 0% | 0hPa | 2.5V | 18:12:15 | 02:05:13 | 00:00:00 | |
| DM0DOS-11 | 2026-09-02 00:55:12 | 52.79252 | -0.04830 | 288° | 11km/h | 29703m | 6.2m/s | -45.7°C | 2.5% | 0hPa | 2.6V | 08:30:00 | 02:05:03 | 00:00:00 | |
| DL1XH-west | 2026-09-02 00:55:10 | 52.79252 | -0.04830 | 288° | 11km/h | 29703m | 6.2m/s | -45.7°C | 0% | 0hPa | 2.6V | 18:12:15 | 02:05:03 | 00:00:00 | |
| BIOWL1-15 | 2026-09-02 00:55:06 | 52.79249 | -0.04820 | 355° | 4km/h | 29680m | 4.8m/s | -45.7°C | 0% | 0hPa | 2.5V | 18:12:15 | 02:04:59 | 00:00:00 | |
| DM0DOS-11 | 2026-09-02 00:55:02 | 52.79257 | -0.04802 | 233° | 13km/h | 29647m | 5.7m/s | -45.8°C | 2.5% | 0hPa | 2.5V | 08:30:00 | 02:04:53 | 00:00:00 | |
| DL1XH-west | 2026-09-02 00:54:59 | 52.79259 | -0.04798 | 244° | 7km/h | 29641m | 6.1m/s | -45.8°C | 0% | 0hPa | 2.6V | 18:12:15 | 02:04:52 | 00:00:00 | |
| BIOWL1-15 | 2026-09-02 00:54:55 | 52.79255 | -0.04790 | 301° | 5km/h | 29618m | 6.1m/s | -45.7°C | 0% | 0hPa | 2.5V | 18:12:15 | 02:04:48 | 00:00:00 | |
| DB0UT-7 | 2026-09-02 00:54:53 | 52.79256 | -0.04785 | 232° | 9km/h | 29607m | 5.2m/s | -45.6°C | 2.5% | 0hPa | 2.5V | 00:00:00 | 02:04:46 | 00:00:00 | |
| DM0DOS-11 | 2026-09-02 00:54:52 | 52.79262 | -0.04783 | 152° | 11km/h | 29590m | 6.4m/s | -45.7°C | 2.5% | 0hPa | 2.5V | 08:30:00 | 02:04:43 | 00:00:00 | |
| DL1XH-west | 2026-09-02 00:54:48 | 52.79266 | -0.04788 | 138° | 11km/h | 29578m | 5.5m/s | -45.6°C | 0% | 0hPa | 2.6V | 18:12:15 | 02:04:41 | 00:00:00 | |
| DJ2DS-15 | 2026-09-02 00:54:48 | 52.79266 | -0.04788 | 138° | 9km/h | 29578m | 5.5m/s | -45.6°C | 2.5% | 0hPa | 2.6V | 00:00:00 | 02:04:41 | 00:00:00 | |
| DM0DOS-11 | 2026-09-02 00:54:45 | 52.79265 | -0.04783 | 303° | 9km/h | 29532m | 6.3m/s | -45.8°C | 2.5% | 0hPa | 2.5V | 08:30:00 | 02:04:33 | 00:00:00 | |
| BIOWL1-15 | 2026-09-02 00:54:45 | 52.79271 | -0.04791 | 223° | 4km/h | 29561m | 5.1m/s | -45.6°C | 0% | 0hPa | 2.5V | 18:12:15 | 02:04:38 | 00:00:00 | |
| DL1XH-west | 2026-09-02 00:54:38 | 52.79264 | -0.04777 | 269° | 5km/h | 29521m | 4.3m/s | -45.8°C | 0% | 0hPa | 2.5V | 18:12:15 | 02:04:31 | 00:00:00 | |
| AU51GT2 | 2026-09-02 00:54:37 | 52.79264 | -0.04775 | 220° | 0km/h | 29516m | 6.3m/s | -45.8°C | 0.2% | -1.0hPa | 2.6V | 00:00:00 | 00:00:00 | 00:00:00 | |
| BIOWL9-15 | 2026-09-02 00:54:36 | 52.79265 | -0.04779 | 105° | 9km/h | 29504m | 5.7m/s | -45.8°C | 0.3% | -1.0hPa | 2.6V | 00:00:00 | 00:00:00 | 00:00:00 | |
| DM0DOS-11 | 2026-09-02 00:54:35 | 52.79275 | -0.04800 | 130° | 9km/h | 29476m | 5.5m/s | -45.9°C | 2.5% | 0hPa | 2.6V | 08:30:00 | 02:04:23 | 00:00:00 | |
| BIOWL1-15 | 2026-09-02 00:54:35 | 52.79273 | -0.04797 | 141° | 13km/h | 29481m | 4.4m/s | -45.9°C | 0% | 0hPa | 2.6V | 18:12:15 | 02:04:24 | 00:00:00 | |
| DL1XH-west | 2026-09-02 00:54:27 | 52.79273 | -0.04805 | 357° | 9km/h | 29459m | 4.8m/s | -45.9°C | 0% | 0hPa | 2.5V | 18:12:15 | 02:04:20 | 00:00:00 | |
| DM0DOS-11 | 2026-09-02 00:54:23 | 52.79270 | -0.04788 | 110° | 5km/h | 29421m | 5.5m/s | -45.8°C | 2.5% | 0hPa | 2.6V | 08:30:00 | 02:04:13 | 00:00:00 | |
| BIOWL1-15 | 2026-09-02 00:54:22 | 52.79269 | -0.04787 | 199° | 4km/h | 29427m | 6.3m/s | -45.8°C | 0% | 0hPa | 2.5V | 18:12:15 | 02:04:14 | 00:00:00 | |
| DL1XH-west | 2026-09-02 00:54:16 | 52.79274 | -0.04800 | 148° | 9km/h | 29399m | 5.4m/s | -45.8°C | 0% | 0hPa | 2.5V | 18:12:15 | 02:04:09 | 00:00:00 | |
| DM0DOS-11 | 2026-09-02 00:54:15 | 52.79276 | -0.04806 | 18° | 11km/h | 29368m | 5.3m/s | -46°C | 2.4% | 0hPa | 2.5V | 08:30:00 | 02:04:03 | 00:00:00 | |
| DL1XH-west | 2026-09-02 00:54:06 | 52.79268 | -0.04802 | 260° | 9km/h | 29346m | 4.6m/s | -46.1°C | 0% | 0hPa | 2.5V | 18:12:15 | 02:03:59 | 00:00:00 | |
| DL1XH-west | 2026-09-02 00:53:55 | 52.79278 | -0.04777 | 322° | 18km/h | 29286m | 5m/s | -46.5°C | 0% | 0hPa | 2.6V | 18:12:15 | 02:03:48 | 00:00:00 | |
| BIOWL1-15 | 2026-09-02 00:53:54 | 52.79279 | -0.04746 | 181° | 16km/h | 29250m | 5.3m/s | 0°C | 0% | 0hPa | 2.5V | 18:12:15 | 02:03:41 | 00:00:00 | |
| DL1XH-west | 2026-09-02 00:53:44 | 52.79292 | -0.04747 | 212° | 9km/h | 29231m | 6m/s | -47°C | 0% | 0hPa | 2.6V | 18:12:15 | 02:03:37 | 00:00:00 | |
| BIOWL1-15 | 2026-09-02 00:53:43 | 52.79293 | -0.04744 | 250° | 11km/h | 29225m | 5.5m/s | 0°C | 0% | 0hPa | 2.5V | 18:12:15 | 02:03:36 | 00:00:00 | |
| BIOWL1-15 | 2026-09-02 00:53:35 | 52.79278 | -0.04708 | 253° | 2km/h | 29170m | 6.5m/s | 0°C | 0% | 0hPa | 2.6V | 18:12:15 | 02:03:26 | 00:00:00 | |
| DL1XH-west | 2026-09-02 00:53:34 | 52.79278 | -0.04709 | 276° | 5km/h | 29175m | 5.1m/s | -47.2°C | 0% | 0hPa | 2.6V | 18:12:15 | 02:03:27 | 00:00:00 | |
| DM0DOS-11 | 2026-09-02 00:53:32 | 52.79280 | -0.04706 | 228° | 4km/h | 29152m | 6.2m/s | -47.2°C | 2.6% | 0hPa | 2.5V | 08:30:00 | 02:03:23 | 00:00:00 | |
| DJ2DS-15 | 2026-09-02 00:53:28 | 52.79281 | -0.04701 | 275° | 7km/h | 29142m | 4.1m/s | -47.2°C | 2.6% | 0hPa | 2.5V | 00:00:00 | 02:03:21 | 00:00:00 | |
| DM0DOS-11 | 2026-09-02 00:53:25 | 52.79269 | -0.04687 | 301° | 4km/h | 29094m | 5.6m/s | -47.6°C | 2.7% | 0hPa | 2.5V | 08:30:00 | 02:03:12 | 00:00:00 | |
| DL1XH-west | 2026-09-02 00:53:24 | 52.79276 | -0.04698 | 2° | 7km/h | 29120m | 4.7m/s | -47.4°C | 0% | 0hPa | 2.5V | 18:12:15 | 02:03:17 | 00:00:00 | |
| DL1XH-west | 2026-09-02 00:53:14 | 52.79274 | -0.04698 | 155° | 5km/h | 29060m | 4.4m/s | -47.7°C | 0% | 0hPa | 2.5V | 18:12:15 | 02:03:06 | 00:00:00 | |
| DM0DOS-11 | 2026-09-02 00:53:14 | 52.79276 | -0.04704 | 76° | 7km/h | 29044m | 5.5m/s | -47.7°C | 2.7% | 0hPa | 2.6V | 08:30:00 | 02:03:03 | 00:00:00 | |
| DJ2DS-15 | 2026-09-02 00:53:08 | 52.79273 | -0.04708 | 42° | 7km/h | 29034m | 5.3m/s | -47.7°C | 2.8% | 0hPa | 2.5V | 00:00:00 | 02:03:01 | 00:00:00 | |
| AU51GT2 | 2026-09-02 00:53:04 | 52.79273 | -0.04706 | 188° | 2km/h | 29012m | 5.5m/s | 0°C | -1.0% | -1.0hPa | 2.5V | 00:00:00 | 00:00:00 | 00:00:00 | |
| DM0DOS-11 | 2026-09-02 00:53:03 | 52.79279 | -0.04719 | 126° | 13km/h | 28989m | 6.2m/s | -47.7°C | 2.8% | 0hPa | 2.5V | 08:30:00 | 02:02:53 | 00:00:00 | |
| DL1XH-west | 2026-09-02 00:53:03 | 52.79275 | -0.04710 | 117° | 11km/h | 29000m | 5.5m/s | -47.7°C | 0% | 0hPa | 2.5V | 18:12:15 | 02:02:55 | 00:00:00 | |
| BIOWL1-15 | 2026-09-02 00:52:57 | 52.79285 | -0.04729 | 130° | 9km/h | 28972m | 5.2m/s | 0°C | 0% | 0hPa | 2.5V | 18:12:15 | 02:02:50 | 00:00:00 | |
| DM0DOS-11 | 2026-09-02 00:52:52 | 52.79284 | -0.04744 | 122° | 9km/h | 28918m | 5.6m/s | -47.6°C | 2.7% | 0hPa | 2.6V | 08:30:00 | 02:02:41 | 00:00:00 | |
| DL1XH-west | 2026-09-02 00:52:51 | 52.79283 | -0.04741 | 293° | 2km/h | 28936m | 4.9m/s | -47.6°C | 0% | 0hPa | 2.5V | 18:12:15 | 02:02:44 | 00:00:00 | |
| DJ2DS-15 | 2026-09-02 00:52:48 | 52.79284 | -0.04744 | 123° | 11km/h | 28919m | 5.5m/s | -47.5°C | 2.7% | 0hPa | 2.6V | 00:00:00 | 02:02:41 | 00:00:00 | |
| DB0UT-7 | 2026-09-02 00:52:45 | 52.79292 | -0.04754 | 153° | 11km/h | 28901m | 5.3m/s | -47.5°C | 2.8% | 0hPa | 2.5V | 00:00:00 | 02:02:38 | 00:00:00 | |
| DM0DOS-11 | 2026-09-02 00:52:43 | 52.79296 | -0.04780 | 15° | 7km/h | 28859m | 5.3m/s | -47.3°C | 2.7% | 0hPa | 2.5V | 08:30:00 | 02:02:31 | 00:00:00 | |
| DL1XH-west | 2026-09-02 00:52:41 | 52.79299 | -0.04776 | 69° | 9km/h | 28872m | 6.1m/s | -47.4°C | 0% | 0hPa | 2.6V | 18:12:15 | 02:02:33 | 00:00:00 | |
| BIOWL1-15 | 2026-09-02 00:52:40 | 52.79296 | -0.04780 | 16° | 7km/h | 28859m | 5.4m/s | 0°C | 0% | 0hPa | 2.5V | 18:12:15 | 02:02:31 | 00:00:00 | |
| DM0DOS-11 | 2026-09-02 00:52:33 | 52.79306 | -0.04809 | 106° | 18km/h | 28795m | 5.2m/s | -47.4°C | 2.7% | 0hPa | 2.5V | 08:30:00 | 02:02:20 | 00:00:00 | |
| DL1XH-west | 2026-09-02 00:52:29 | 52.79301 | -0.04796 | 141° | 18km/h | 28807m | 6.6m/s | -47.4°C | 0% | 0hPa | 2.5V | 18:12:15 | 02:02:22 | 00:00:00 | |
| DJ2DS-15 | 2026-09-02 00:52:28 | 52.79304 | -0.04802 | 123° | 11km/h | 28801m | 5.9m/s | -47.3°C | 2.7% | 0hPa | 2.6V | 00:00:00 | 02:02:21 | 00:00:00 | |
| DM0DOS-11 | 2026-09-02 00:52:22 | 52.79302 | -0.04842 | 181° | 5km/h | 28735m | 6.5m/s | -47.5°C | 2.7% | 0hPa | 2.6V | 08:30:00 | 02:02:10 | 00:00:00 | |
| DL1XH-west | 2026-09-02 00:52:19 | 52.79301 | -0.04839 | 67° | 5km/h | 28748m | 4.8m/s | -47.4°C | 0% | 0hPa | 2.5V | 18:12:15 | 02:02:12 | 00:00:00 | |
| DB0UT-7 | 2026-09-02 00:52:15 | 52.79306 | -0.04842 | 165° | 11km/h | 28724m | 4.4m/s | -47.5°C | 2.7% | 0hPa | 2.6V | 00:00:00 | 00:00:00 | 00:00:00 | |
| DM0DOS-11 | 2026-09-02 00:52:12 | 52.79311 | -0.04872 | 344° | 9km/h | 28676m | 6m/s | -47.5°C | 2.7% | 0hPa | 2.6V | 08:30:00 | 02:02:00 | 00:00:00 | |
| DL1XH-west | 2026-09-02 00:52:08 | 52.79312 | -0.04872 | 360° | 5km/h | 28681m | 5.9m/s | -47.6°C | 0% | 0hPa | 2.5V | 18:12:15 | 02:02:01 | 00:00:00 | |
| DJ2DS-15 | 2026-09-02 00:52:08 | 52.79312 | -0.04872 | 360° | 11km/h | 28682m | 5.8m/s | -47.5°C | 2.7% | 0hPa | 2.5V | 00:00:00 | 02:02:01 | 00:00:00 | |
| DM0DOS-11 | 2026-09-02 00:52:03 | 52.79314 | -0.04874 | 115° | 7km/h | 28613m | 6.8m/s | -47.5°C | 2.7% | 0hPa | 2.5V | 08:30:00 | 02:01:50 | 00:00:00 | |
| DL1XH-west | 2026-09-02 00:51:57 | 52.79314 | -0.04874 | 116° | 7km/h | 28613m | 6.8m/s | -47.5°C | 0% | 0hPa | 2.5V | 18:12:15 | 02:01:50 | 00:00:00 | |
| DM0DOS-11 | 2026-09-02 00:51:53 | 52.79292 | -0.04851 | 265° | 4km/h | 28550m | 6.8m/s | -47.5°C | 2.7% | 0hPa | 2.5V | 08:30:00 | 02:01:40 | 00:00:00 | |
| DL1XH-west | 2026-09-02 00:51:46 | 52.79292 | -0.04850 | 137° | 2km/h | 28543m | 6.8m/s | 0°C | 0% | 0hPa | 2.5V | 18:12:15 | 02:01:39 | 00:00:00 | |
| DB0UT-7 | 2026-09-02 00:51:45 | 52.79292 | -0.04852 | 111° | 11km/h | 28537m | 5.4m/s | -47.5°C | 2.7% | 0hPa | 2.6V | 00:00:00 | 02:01:38 | 00:00:00 | |
| DM0DOS-11 | 2026-09-02 00:51:42 | 52.79280 | -0.04858 | 352° | 22km/h | 28487m | 5.7m/s | -47.5°C | 2.7% | 0hPa | 2.6V | 08:30:00 | 02:01:30 | 00:00:00 | |
| DL1XH-west | 2026-09-02 00:51:36 | 52.79275 | -0.04857 | 343° | 22km/h | 28481m | 7.3m/s | 0°C | 0% | 0hPa | 2.6V | 18:12:15 | 02:01:29 | 00:00:00 | |
| DM0DOS-11 | 2026-09-02 00:51:32 | 52.79250 | -0.04841 | 305° | 4km/h | 28424m | 6.1m/s | -47.5°C | 2.7% | 0hPa | 2.6V | 08:30:00 | 02:01:20 | 00:00:00 | |
| DL1XH-west | 2026-09-02 00:51:26 | 52.79249 | -0.04840 | 353° | 4km/h | 28417m | 6.9m/s | 0°C | 0% | 0hPa | 2.6V | 18:12:15 | 02:01:19 | 00:00:00 | |
| DM0DOS-11 | 2026-09-02 00:51:22 | 52.79221 | -0.04829 | 333° | 13km/h | 28360m | 5.7m/s | -47.4°C | 2.7% | 0hPa | 2.5V | 08:30:00 | 02:01:10 | 00:00:00 | |
| DB0UT-7 | 2026-09-02 00:51:15 | 52.79217 | -0.04823 | 290° | 13km/h | 28347m | 6.7m/s | -47.3°C | 2.7% | 0hPa | 2.5V | 00:00:00 | 00:00:00 | 00:00:00 | |
| DM0DOS-11 | 2026-09-02 00:51:12 | 52.79204 | -0.04801 | 311° | 13km/h | 28294m | 6m/s | -47.5°C | 2.8% | 0hPa | 2.5V | 08:30:00 | 02:01:00 | 00:00:00 | |
| DJ2DS-15 | 2026-09-02 00:51:10 | 52.79211 | -0.04810 | 339° | 9km/h | 28314m | 6.0m/s | -47.5°C | 0.3% | -1.0hPa | 2.5V | 00:00:00 | 00:00:00 | 00:00:00 | |
| DJ2DS-15 | 2026-09-02 00:51:08 | 52.79206 | -0.04805 | 311° | 13km/h | 28301m | 6.5m/s | -47.5°C | 2.7% | 0hPa | 2.5V | 00:00:00 | 02:01:01 | 00:00:00 | |
| DM0DOS-11 | 2026-09-02 00:51:02 | 52.79192 | -0.04757 | 310° | 5km/h | 28232m | 5.3m/s | -47.5°C | 2.7% | 0hPa | 2.5V | 08:30:00 | 02:00:50 | 00:00:00 | |
| BIOWL1-15 | 2026-09-02 00:50:51 | 52.79187 | -0.04721 | 286° | 22km/h | 28182m | 7.1m/s | -47.3°C | 0% | 0hPa | 2.5V | 18:12:15 | 02:00:42 | 00:00:00 | |
| DM0DOS-11 | 2026-09-02 00:50:51 | 52.79184 | -0.04700 | 277° | 27km/h | 28170m | 5m/s | -47.3°C | 2.7% | 0hPa | 2.5V | 08:30:00 | 02:00:40 | 00:00:00 | |
| DJ2DS-15 | 2026-09-02 00:50:48 | 52.79185 | -0.04711 | 279° | 16km/h | 28176m | 6.1m/s | -47.3°C | 2.7% | 0hPa | 2.5V | 00:00:00 | 02:00:41 | 08:30:00 | |
| DB0UT-7 | 2026-09-02 00:50:45 | 52.79182 | -0.04679 | 286° | 16km/h | 28159m | 6.6m/s | -47.3°C | 2.7% | 0hPa | 2.5V | 00:00:00 | 02:00:38 | 00:00:00 | |
| DM0DOS-11 | 2026-09-02 00:50:41 | 52.79185 | -0.04645 | 255° | 9km/h | 28110m | 6m/s | -47.2°C | 2.7% | 0hPa | 2.5V | 08:30:00 | 02:00:30 | 00:00:00 | |
| BIOWL1-15 | 2026-09-02 00:50:39 | 52.79189 | -0.04621 | 251° | 22km/h | 28085m | 5.6m/s | -47.2°C | 0% | 0hPa | 2.6V | 18:12:15 | 02:00:26 | 00:00:00 | |
| DJ2DS-15 | 2026-09-02 00:50:34 | 52.79187 | -0.04629 | 250° | 18km/h | 28092m | 6.8m/s | -47.2°C | 0.3% | -1.0hPa | 2.6V | 00:00:00 | 00:00:00 | 00:00:00 | |
| DM0DOS-11 | 2026-09-02 00:50:31 | 52.79200 | -0.04577 | 226° | 20km/h | 28048m | 5.7m/s | -47.6°C | 2.7% | 0hPa | 2.6V | 08:30:00 | 02:00:20 | 00:00:00 | |
| BIOWL1-15 | 2026-09-02 00:50:25 | 52.79209 | -0.04562 | 229° | 13km/h | 28029m | 5.7m/s | -47.6°C | 0% | 0hPa | 2.5V | 18:12:15 | 02:00:17 | 00:00:00 | |
| DM0DOS-11 | 2026-09-02 00:50:21 | 52.79227 | -0.04512 | 255° | 27km/h | 27987m | 5.6m/s | -47.3°C | 2.7% | 0hPa | 2.5V | 08:30:00 | 02:00:10 | 00:00:00 | |
| BIOWL1-15 | 2026-09-02 00:50:15 | 52.79245 | -0.04461 | 226° | 20km/h | 27929m | 4.8m/s | -47.3°C | 0% | 0hPa | 2.5V | 18:12:15 | 02:00:00 | 00:00:00 | |
| DB0UT-7 | 2026-09-02 00:50:15 | 52.79231 | -0.04491 | 244° | 16km/h | 27975m | 5.7m/s | -47.2°C | 2.7% | 0hPa | 2.5V | 00:00:00 | 00:00:00 | 00:00:00 | |
| DM0DOS-11 | 2026-09-02 00:50:13 | 52.79245 | -0.04461 | 226° | 20km/h | 27929m | 4.8m/s | -47.3°C | 2.6% | 0hPa | 2.5V | 08:30:00 | 02:00:00 | 00:00:00 | |
| BIOWL1-15 | 2026-09-02 00:50:03 | 52.79255 | -0.04420 | 263° | 29km/h | 27906m | 4.8m/s | -47.5°C | 0% | 0hPa | 2.6V | 18:12:15 | 01:59:56 | 00:00:00 | |
| DM0DOS-11 | 2026-09-02 00:50:02 | 52.79266 | -0.04388 | 143° | 7km/h | 27870m | 6.5m/s | -47.8°C | 2.7% | 0hPa | 2.6V | 08:30:00 | 01:59:50 | 00:00:00 | |
| DJ2DS-15 | 2026-09-02 00:49:58 | 52.79264 | -0.04387 | 172° | 7km/h | 27877m | 6.0m/s | -47.7°C | 0.3% | -1.0hPa | 2.5V | 00:00:00 | 00:00:00 | 00:00:00 | |
| BIOWL9-15 | 2026-09-02 00:49:57 | 52.79267 | -0.04390 | 129° | 5km/h | 27864m | 5.8m/s | -47.9°C | 0.3% | -1.0hPa | 2.5V | 00:00:00 | 00:00:00 | 00:00:00 | |
| DM0DOS-11 | 2026-09-02 00:49:52 | 52.79276 | -0.04357 | 267° | 22km/h | 27813m | 5.4m/s | -48°C | 2.8% | 0hPa | 2.5V | 08:30:00 | 01:59:40 | 00:00:00 | |
| BIOWL1-15 | 2026-09-02 00:49:52 | 52.79275 | -0.04366 | 272° | 24km/h | 27818m | 4.3m/s | -48°C | 0% | 0hPa | 2.5V | 18:12:15 | 01:59:41 | 00:00:00 | |
| DJ2DS-15 | 2026-09-02 00:49:48 | 52.79275 | -0.04366 | 272° | 9km/h | 27818m | 4.3m/s | -47.9°C | 2.7% | 0hPa | 2.5V | 00:00:00 | 01:59:41 | 00:00:00 | |
| DB0UT-7 | 2026-09-02 00:49:45 | 52.79277 | -0.04343 | 240° | 5km/h | 27802m | 5.0m/s | -48.0°C | 2.8% | 0hPa | 2.6V | 00:00:00 | 01:59:38 | 08:30:00 | |
| DM0DOS-11 | 2026-09-02 00:49:43 | 52.79286 | -0.04359 | 49° | 7km/h | 27697m | 4.8m/s | -48.2°C | 2.8% | 0hPa | 2.6V | 08:30:00 | 01:59:20 | 00:00:00 | |
| BIOWL1-15 | 2026-09-02 00:49:41 | 52.79289 | -0.04370 | 45° | 9km/h | 27639m | 6.2m/s | -48.2°C | 0% | 0hPa | 2.5V | 18:12:15 | 01:59:10 | 00:00:00 | |
| DM0DOS-11 | 2026-09-02 00:49:37 | 52.79287 | -0.04372 | 32° | 11km/h | 27632m | 7m/s | -48.2°C | 2.8% | 0hPa | 2.6V | 08:30:00 | 01:59:09 | 00:00:00 | |
| BIOWL1-15 | 2026-09-02 00:49:23 | 52.79287 | -0.04372 | 32° | 11km/h | 27633m | 7m/s | -48.2°C | 0% | 0hPa | 2.6V | 18:12:15 | 01:59:09 | 00:00:00 | |
| DM0DOS-11 | 2026-09-02 00:49:22 | 52.79279 | -0.04388 | 125° | 13km/h | 27604m | 6m/s | -48.3°C | 2.8% | 0hPa | 2.5V | 08:30:00 | 01:59:04 | 00:00:00 | |
| DB0UT-7 | 2026-09-02 00:49:15 | 52.79284 | -0.04375 | 26° | 15km/h | 27627m | 4.9m/s | -48.2°C | 2.8% | 0hPa | 2.5V | 00:00:00 | 00:00:00 | 00:00:00 | |
| BIOWL1-15 | 2026-09-02 00:49:06 | 52.79274 | -0.04465 | 110° | 11km/h | 27507m | 5.9m/s | -48.1°C | 0% | 0hPa | 2.5V | 18:12:15 | 01:58:47 | 00:00:00 | |
| DM0DOS-11 | 2026-09-02 00:49:03 | 52.79282 | -0.04424 | 35° | 20km/h | 27547m | 6.4m/s | -48°C | 2.7% | 0hPa | 2.5V | 08:30:00 | 01:58:54 | 00:00:00 | |
| DM0DOS-11 | 2026-09-02 00:48:56 | 52.79273 | -0.04476 | 64° | 11km/h | 27490m | 6.6m/s | -48.2°C | 2.8% | 0hPa | 2.6V | 08:30:00 | 01:58:44 | 00:00:00 | |
| BIOWL1-15 | 2026-09-02 00:48:53 | 52.79274 | -0.04469 | 90° | 7km/h | 27501m | 5.8m/s | -48.1°C | 0% | 0hPa | 2.5V | 18:12:15 | 01:58:46 | 00:00:00 | |
| DJ2DS-15 | 2026-09-02 00:48:48 | 52.79265 | -0.04492 | 38° | 18km/h | 27472m | 6.8m/s | -48.2°C | 2.8% | 0hPa | 2.5V | 00:00:00 | 01:58:41 | 00:00:00 | |
| DB0UT-7 | 2026-09-02 00:48:45 | 52.79251 | -0.04505 | 38° | 16km/h | 27454m | 6.4m/s | -48.2°C | 2.8% | 0hPa | 2.5V | 00:00:00 | 01:58:38 | 00:00:00 | |
| DM0DOS-11 | 2026-09-02 00:48:43 | 52.79245 | -0.04527 | 90° | 7km/h | 27431m | 6.1m/s | -48.3°C | 2.8% | 0hPa | 2.5V | 08:30:00 | 01:58:34 | 00:00:00 | |
| BIOWL1-15 | 2026-09-02 00:48:43 | 52.79246 | -0.04517 | 75° | 15km/h | 27442m | 5.3m/s | -48.3°C | 0% | 0hPa | 2.5V | 18:12:15 | 01:58:36 | 00:00:00 | |
| DM0DOS-11 | 2026-09-02 00:48:36 | 52.79209 | -0.04565 | 29° | 22km/h | 27373m | 5.2m/s | -48.4°C | 2.8% | 0hPa | 2.5V | 08:30:00 | 01:58:24 | 00:00:00 | |
| BIOWL1-15 | 2026-09-02 00:48:32 | 52.79194 | -0.04580 | 348° | 11km/h | 27344m | 6.7m/s | -48.5°C | 0% | 0hPa | 2.6V | 18:12:15 | 01:58:19 | 00:00:00 | |
| DJ2DS-15 | 2026-09-02 00:48:28 | 52.79198 | -0.04578 | 42° | 15km/h | 27356m | 4.7m/s | -48.4°C | 2.8% | 0hPa | 2.6V | 00:00:00 | 01:58:21 | 00:00:00 | |
| DM0DOS-11 | 2026-09-02 00:48:25 | 52.79178 | -0.04583 | 34° | 16km/h | 27315m | 4.8m/s | -48.5°C | 2.9% | 0hPa | 2.6V | 08:30:00 | 01:58:14 | 00:00:00 | |
| BIOWL9-15 | 2026-09-02 00:48:23 | 52.79160 | -0.04596 | 33° | 11km/h | 27287m | 6.5m/s | -48.6°C | 0.4% | -1.0hPa | 2.6V | 00:00:00 | 00:00:00 | 00:00:00 | |
| DB0UT-7 | 2026-09-02 00:48:15 | 52.79158 | -0.04599 | 44° | 15km/h | 27280m | 5.8m/s | -48.6°C | 2.9% | 0hPa | 2.6V | 00:00:00 | 00:00:00 | 00:00:00 | |
| DM0DOS-11 | 2026-09-02 00:48:13 | 52.79146 | -0.04606 | 347° | 18km/h | 27257m | 6.2m/s | -48.7°C | 2.9% | 0hPa | 2.5V | 08:30:00 | 01:58:04 | 00:00:00 | |
| BIOWL1-15 | 2026-09-02 00:48:10 | 52.79141 | -0.04604 | 343° | 22km/h | 27251m | 4.9m/s | -48.7°C | 0% | 0hPa | 2.5V | 18:12:15 | 01:58:03 | 00:00:00 | |
| DJ2DS-15 | 2026-09-02 00:48:10 | 52.79136 | -0.04601 | 342° | 18km/h | 27246m | 4.7m/s | -48.7°C | 0.4% | -1.0hPa | 2.5V | 00:00:00 | 00:00:00 | 00:00:00 | |
| DJ2DS-15 | 2026-09-02 00:48:08 | 52.79132 | -0.04599 | 353° | 15km/h | 27240m | 6.3m/s | -48.6°C | 2.9% | 0hPa | 2.5V | 00:00:00 | 01:58:01 | 00:00:00 | |
| DM0DOS-11 | 2026-09-02 00:48:07 | 52.79103 | -0.04603 | 1° | 16km/h | 27202m | 5m/s | -48.5°C | 2.9% | 0hPa | 2.5V | 08:30:00 | 01:57:54 | 00:00:00 | |
| DM0DOS-11 | 2026-09-02 00:47:55 | 52.79083 | -0.04584 | 356° | 15km/h | 27145m | 5.7m/s | -48.3°C | 2.9% | 0hPa | 2.6V | 08:30:00 | 01:57:44 | 00:00:00 | |
| DJ2DS-15 | 2026-09-02 00:47:48 | 52.79072 | -0.04584 | 353° | 7km/h | 27128m | 6.1m/s | -48.3°C | 2.9% | 0hPa | 2.5V | 00:00:00 | 01:57:41 | 08:30:00 | |
| DB0UT-7 | 2026-09-02 00:47:45 | 52.79065 | -0.04582 | 354° | 11km/h | 27111m | 6.9m/s | -48.2°C | 2.9% | 0hPa | 2.5V | 00:00:00 | 01:57:38 | 00:00:00 | |
| DM0DOS-11 | 2026-09-02 00:47:43 | 52.79062 | -0.04578 | 296° | 9km/h | 27086m | 6.6m/s | -48.1°C | 2.9% | 0hPa | 2.5V | 08:30:00 | 01:57:34 | 00:00:00 | |
| BIOWL1-15 | 2026-09-02 00:47:36 | 52.79056 | -0.04556 | 262° | 9km/h | 27042m | 5.4m/s | -47.9°C | 0% | 0hPa | 2.5V | 18:12:15 | 01:57:27 | 00:00:00 | |
| DJ2DS-15 | 2026-09-02 00:47:34 | 52.79057 | -0.04552 | 237° | 7km/h | 27037m | 6.1m/s | -47.8°C | 0.4% | -1.0hPa | 2.5V | 00:00:00 | 00:00:00 | 00:00:00 | |
| DM0DOS-11 | 2026-09-02 00:47:33 | 52.79060 | -0.04548 | 214° | 7km/h | 27024m | 5m/s | -47.8°C | 2.8% | 0hPa | 2.5V | 08:30:00 | 01:57:24 | 00:00:00 | |
| BIOWL1-15 | 2026-09-02 00:47:24 | 52.79066 | -0.04497 | 267° | 13km/h | 26958m | 5.8m/s | -47.7°C | 0% | 0hPa | 2.6V | 18:12:15 | 01:57:13 | 00:00:00 | |
| BIOWL9-15 | 2026-09-02 00:47:21 | 52.79066 | -0.04503 | 259° | 13km/h | 26964m | 6.1m/s | -47.7°C | 0.3% | -1.0hPa | 2.5V | 00:00:00 | 00:00:00 | 00:00:00 | |
| DM0DOS-11 | 2026-09-02 00:47:15 | 52.79080 | -0.04449 | 232° | 11km/h | 26901m | 5.7m/s | -47.8°C | 2.8% | 0hPa | 2.5V | 08:30:00 | 01:57:04 | 00:00:00 | |
| BIOWL1-15 | 2026-09-02 00:47:10 | 52.79084 | -0.04417 | 272° | 9km/h | 26866m | 6.2m/s | -47.9°C | 0% | 0hPa | 2.5V | 18:12:15 | 01:56:58 | 00:00:00 | |
| DJ2DS-15 | 2026-09-02 00:47:08 | 52.79084 | -0.04434 | 262° | 13km/h | 26883m | 5.9m/s | -47.8°C | 2.8% | 0hPa | 2.6V | 00:00:00 | 01:57:01 | 00:00:00 | |
| DM0DOS-11 | 2026-09-02 00:47:04 | 52.79092 | -0.04406 | 217° | 18km/h | 26843m | 5.9m/s | -47.8°C | 2.8% | 0hPa | 2.6V | 08:30:00 | 01:56:54 | 00:00:00 | |
| BIOWL1-15 | 2026-09-02 00:46:57 | 52.79117 | -0.04384 | 172° | 13km/h | 26788m | 5.1m/s | -47.9°C | 0% | 0hPa | 2.5V | 18:12:15 | 01:56:45 | 00:00:00 | |
| DM0DOS-11 | 2026-09-02 00:46:52 | 52.79120 | -0.04385 | 157° | 15km/h | 26782m | 7.1m/s | -47.9°C | 2.8% | 0hPa | 2.6V | 08:30:00 | 01:56:44 | 00:00:00 | |
| DJ2DS-15 | 2026-09-02 00:46:48 | 52.79132 | -0.04394 | 163° | 16km/h | 26762m | 6.9m/s | -47.8°C | 2.8% | 0hPa | 2.5V | 00:00:00 | 01:56:41 | 00:00:00 | |
| DM0DOS-11 | 2026-09-02 00:46:46 | 52.79162 | -0.04403 | 184° | 13km/h | 26715m | 7m/s | -47.7°C | 2.8% | 0hPa | 2.5V | 08:30:00 | 01:56:33 | 00:00:00 | |
| BIOWL1-15 | 2026-09-02 00:46:46 | 52.79140 | -0.04396 | 183° | 18km/h | 26750m | 5.1m/s | -47.8°C | 0% | 0hPa | 2.5V | 18:12:15 | 01:56:39 | 00:00:00 | |
| BIOWL1-15 | 2026-09-02 00:46:36 | 52.79176 | -0.04400 | 172° | 15km/h | 26689m | 4.9m/s | -47.6°C | 0% | 0hPa | 2.5V | 18:12:15 | 01:56:29 | 00:00:00 | |
| DM0DOS-11 | 2026-09-02 00:46:35 | 52.79206 | -0.04400 | 171° | 24km/h | 26651m | 5.5m/s | -47.5°C | 2.7% | 0hPa | 2.5V | 08:30:00 | 01:56:23 | 00:00:00 | |
| BIOWL1-15 | 2026-09-02 00:46:26 | 52.79229 | -0.04397 | 205° | 22km/h | 26629m | 5.4m/s | -47.5°C | 0% | 0hPa | 2.5V | 18:12:15 | 01:56:19 | 00:00:00 | |
| DM0DOS-11 | 2026-09-02 00:46:22 | 52.79253 | -0.04394 | 155° | 20km/h | 26595m | 5.7m/s | -47.5°C | 2.7% | 0hPa | 2.5V | 08:30:00 | 01:56:13 | 00:00:00 | |
| BIOWL1-15 | 2026-09-02 00:46:15 | 52.79304 | -0.04406 | 176° | 18km/h | 26542m | 4.8m/s | -47.8°C | 0% | 0hPa | 2.5V | 18:12:15 | 01:56:04 | 00:00:00 | |
| DM0DOS-11 | 2026-09-02 00:46:15 | 52.79309 | -0.04407 | 163° | 15km/h | 26536m | 5.5m/s | -47.8°C | 2.8% | 0hPa | 2.5V | 08:30:00 | 01:56:03 | 00:00:00 | |
| DB0UT-7 | 2026-09-02 00:46:12 | 52.79299 | -0.04405 | 176° | 16km/h | 26548m | 6.2m/s | -47.7°C | 2.7% | 0hPa | 2.6V | 00:00:00 | 00:00:00 | 00:00:00 | |
| DJ2DS-15 | 2026-09-02 00:46:08 | 52.79314 | -0.04414 | 118° | 16km/h | 26523m | 6.3m/s | -47.8°C | 2.8% | 0hPa | 2.6V | 00:00:00 | 01:56:01 | 00:00:00 | |
| DM0DOS-11 | 2026-09-02 00:46:05 | 52.79330 | -0.04454 | 149° | 15km/h | 26475m | 5.5m/s | -47.9°C | 2.8% | 0hPa | 2.6V | 08:30:00 | 01:55:53 | 00:00:00 | |
| BIOWL1-15 | 2026-09-02 00:46:01 | 52.79345 | -0.04459 | 155° | 13km/h | 26453m | 6.4m/s | -48°C | 0% | 0hPa | 2.5V | 18:12:15 | 01:55:49 | 00:00:00 | |
| DM0DOS-11 | 2026-09-02 00:45:52 | 52.79358 | -0.04497 | 115° | 24km/h | 26417m | 6.6m/s | -48°C | 2.8% | 0hPa | 2.5V | 08:30:00 | 01:55:43 | 00:00:00 | |
| BIOWL1-15 | 2026-09-02 00:45:48 | 52.79367 | -0.04520 | 138° | 18km/h | 26399m | 6.6m/s | 0°C | 0% | 0hPa | 2.6V | 18:12:15 | 01:55:40 | 00:00:00 | |
| DJ2DS-15 | 2026-09-02 00:45:45 | 52.79374 | -0.04525 | 167° | 11km/h | 26388m | 4.5m/s | -47.8°C | 0.4% | -1.0hPa | 2.5V | 00:00:00 | 00:00:00 | 00:00:00 | |
| DB0UT-7 | 2026-09-02 00:45:42 | 52.79380 | -0.04533 | 114° | 16km/h | 26371m | 5.1m/s | -47.7°C | 2.8% | 0hPa | 2.5V | 00:00:00 | 01:55:35 | 00:00:00 | |
| DM0DOS-11 | 2026-09-02 00:45:41 | 52.79383 | -0.04548 | 108° | 22km/h | 26360m | 5.8m/s | -47.7°C | 2.8% | 0hPa | 2.5V | 08:30:00 | 01:55:33 | 00:00:00 | |
| BIOWL1-15 | 2026-09-02 00:45:39 | 52.79402 | -0.04629 | 98° | 18km/h | 26313m | 6.6m/s | 0°C | 0% | 0hPa | 2.5V | 18:12:15 | 01:55:25 | 00:00:00 | |
| DM0DOS-11 | 2026-09-02 00:45:35 | 52.79401 | -0.04640 | 78° | 11km/h | 26302m | 5.1m/s | -47.7°C | 2.8% | 0hPa | 2.5V | 08:30:00 | 01:55:23 | 00:00:00 | |
| BIOWL1-15 | 2026-09-02 00:45:25 | 52.79399 | -0.04678 | 97° | 24km/h | 26274m | 6.6m/s | 0°C | 0% | 0hPa | 2.5V | 18:12:15 | 01:55:18 | 00:00:00 | |
| BIOWL9-15 | 2026-09-02 00:45:17 | 52.79406 | -0.04755 | 110° | 7km/h | 26229m | 4.5m/s | -48.0°C | 0.4% | -1.0hPa | 2.6V | 00:00:00 | 00:00:00 | 00:00:00 | |
| DM0DOS-11 | 2026-09-02 00:45:16 | 52.79405 | -0.04785 | 100° | 15km/h | 26189m | 5.7m/s | -48.1°C | 2.8% | 0hPa | 2.6V | 08:30:00 | 01:55:03 | 00:00:00 | |
| BIOWL1-15 | 2026-09-02 00:45:14 | 52.79407 | -0.04817 | 96° | 18km/h | 26166m | 5.1m/s | 0°C | 0% | 0hPa | 2.5V | 18:12:15 | 01:54:59 | 00:00:00 | |
| BIOWL1-15 | 2026-09-02 00:45:06 | 52.79410 | -0.04829 | 130° | 15km/h | 26154m | 5.9m/s | 0°C | 0% | 0hPa | 2.5V | 18:12:15 | 01:54:57 | 00:00:00 | |
| DM0DOS-11 | 2026-09-02 00:45:03 | 52.79418 | -0.04842 | 124° | 7km/h | 26131m | 4.6m/s | -48.3°C | 2.9% | 0hPa | 2.5V | 08:30:00 | 01:54:53 | 00:00:00 | |
| DM0DOS-11 | 2026-09-02 00:44:55 | 52.79431 | -0.04862 | 119° | 11km/h | 26073m | 6.1m/s | -48.3°C | 2.8% | 0hPa | 2.6V | 08:30:00 | 01:54:43 | 00:00:00 | |
| DJ2DS-15 | 2026-09-02 00:44:48 | 52.79433 | -0.04874 | 105° | 15km/h | 26062m | 5.5m/s | -48.2°C | 2.8% | 0hPa | 2.5V | 00:00:00 | 01:54:41 | 08:30:00 | |
| DM0DOS-11 | 2026-09-02 00:44:42 | 52.79442 | -0.04921 | 104° | 5km/h | 26016m | 6.6m/s | -48.3°C | 2.8% | 0hPa | 2.5V | 08:30:00 | 01:54:33 | 00:00:00 | |
| DB0UT-7 | 2026-09-02 00:44:42 | 52.79441 | -0.04912 | 95° | 13km/h | 26027m | 5.2m/s | -48.2°C | 2.8% | 0hPa | 2.6V | 00:00:00 | 01:54:35 | 00:00:00 | |
| DM0DOS-11 | 2026-09-02 00:44:35 | 52.79469 | -0.04954 | 137° | 16km/h | 25961m | 6.2m/s | -48.5°C | 2.8% | 0hPa | 2.6V | 08:30:00 | 01:54:23 | 00:00:00 | |
| DJ2DS-15 | 2026-09-02 00:44:28 | 52.79474 | -0.04964 | 116° | 13km/h | 25949m | 5.4m/s | -48.5°C | 2.9% | 0hPa | 2.5V | 00:00:00 | 01:54:21 | 00:00:00 | |
| DM0DOS-11 | 2026-09-02 00:44:23 | 52.79488 | -0.04997 | 143° | 15km/h | 25903m | 6.4m/s | -48.8°C | 2.9% | 0hPa | 2.5V | 08:30:00 | 01:54:13 | 00:00:00 | |
| DM0DOS-11 | 2026-09-02 00:44:15 | 52.79506 | -0.05042 | 79° | 11km/h | 25849m | 5.8m/s | -49°C | 2.9% | 0hPa | 2.6V | 08:30:00 | 01:54:03 | 00:00:00 | |
| DB0UT-7 | 2026-09-02 00:44:12 | 52.79505 | -0.05034 | 104° | 13km/h | 25859m | 4.6m/s | -49.0°C | 2.9% | 0hPa | 2.5V | 00:00:00 | 00:00:00 | 00:00:00 | |
| DJ2DS-15 | 2026-09-02 00:44:08 | 52.79504 | -0.05053 | 86° | 7km/h | 25839m | 4.3m/s | -49.0°C | 2.9% | 0hPa | 2.5V | 00:00:00 | 01:54:01 | 00:00:00 | |
| DM0DOS-11 | 2026-09-02 00:44:02 | 52.79506 | -0.05084 | 96° | 4km/h | 25794m | 6.7m/s | -49.4°C | 2.9% | 0hPa | 2.5V | 08:30:00 | 01:53:53 | 00:00:00 | |
| DM0DOS-11 | 2026-09-02 00:43:54 | 52.79520 | -0.05097 | 106° | 4km/h | 25736m | 6.1m/s | -49.7°C | 3% | 0hPa | 2.6V | 08:30:00 | 01:53:43 | 00:00:00 | |
| DJ2DS-15 | 2026-09-02 00:43:48 | 52.79519 | -0.05100 | 37° | 7km/h | 25726m | 5.5m/s | -49.7°C | 3.0% | 0hPa | 2.5V | 00:00:00 | 01:53:41 | 00:00:00 | |
| BIOWL9-15 | 2026-09-02 00:43:44 | 52.79517 | -0.05095 | 203° | 4km/h | 25691m | 4.6m/s | -49.7°C | 0.4% | -1.0hPa | 2.5V | 00:00:00 | 00:00:00 | 00:00:00 | |
| DM0DOS-11 | 2026-09-02 00:43:42 | 52.79521 | -0.05091 | 220° | 13km/h | 25678m | 6.1m/s | -49.8°C | 3% | 0hPa | 2.5V | 08:30:00 | 01:53:33 | 00:00:00 | |
| DM0DOS-11 | 2026-09-02 00:43:34 | 52.79535 | -0.05071 | 226° | 9km/h | 25620m | 5.9m/s | -50°C | 3.1% | 0hPa | 2.5V | 08:30:00 | 01:53:23 | 00:00:00 | |
| DJ2DS-15 | 2026-09-02 00:43:28 | 52.79538 | -0.05068 | 195° | 15km/h | 25610m | 4.6m/s | -50.0°C | 3.1% | 0hPa | 2.5V | 00:00:00 | 01:53:21 | 00:00:00 | |
| DM0DOS-11 | 2026-09-02 00:43:23 | 52.79562 | -0.05054 | 182° | 16km/h | 25563m | 6.3m/s | -50°C | 3.1% | 0hPa | 2.5V | 08:30:00 | 01:53:13 | 00:00:00 | |
| DJ2DS-15 | 2026-09-02 00:43:21 | 52.79557 | -0.05054 | 185° | 18km/h | 25569m | 6.0m/s | -50.0°C | 0.4% | -1.0hPa | 2.5V | 00:00:00 | 00:00:00 | 00:00:00 | |
| DM0DOS-11 | 2026-09-02 00:43:15 | 52.79597 | -0.05065 | 171° | 18km/h | 25503m | 6m/s | -50.2°C | 3.1% | 0hPa | 2.5V | 08:30:00 | 01:53:03 | 00:00:00 | |
| BIOWL9-15 | 2026-09-02 00:43:14 | 52.79593 | -0.05065 | 179° | 15km/h | 25510m | 6.2m/s | -50.1°C | 0.4% | -1.0hPa | 2.6V | 00:00:00 | 00:00:00 | 00:00:00 | |
| DJ2DS-15 | 2026-09-02 00:43:08 | 52.79606 | -0.05068 | 165° | 22km/h | 25492m | 5.8m/s | -50.1°C | 3.1% | 0hPa | 2.6V | 00:00:00 | 01:53:01 | 00:00:00 | |
| DM0DOS-11 | 2026-09-02 00:43:02 | 52.79645 | -0.05095 | 163° | 22km/h | 25443m | 6m/s | -50.1°C | 3.2% | 0hPa | 2.6V | 08:30:00 | 01:52:53 | 00:00:00 | |
| DM0DOS-11 | 2026-09-02 00:42:55 | 52.79695 | -0.05128 | 163° | 22km/h | 25384m | 6.5m/s | -49.8°C | 3.1% | 0hPa | 2.5V | 08:30:00 | 01:52:43 | 00:00:00 | |
| DJ2DS-15 | 2026-09-02 00:42:45 | 52.79717 | -0.05139 | 165° | 11km/h | 25355m | 5.7m/s | -49.8°C | 0.4% | -1.0hPa | 2.6V | 00:00:00 | 00:00:00 | 00:00:00 | |
| DM0DOS-11 | 2026-09-02 00:42:42 | 52.79734 | -0.05150 | 137° | 11km/h | 25326m | 5.8m/s | -49.9°C | 3.1% | 0hPa | 2.6V | 08:30:00 | 01:52:33 | 00:00:00 | |
| DM0DOS-11 | 2026-09-02 00:42:31 | 52.79762 | -0.05198 | 163° | 16km/h | 25266m | 5.2m/s | -50.2°C | 3.2% | 0hPa | 2.5V | 08:30:00 | 01:52:23 | 00:00:00 | |
| DJ2DS-15 | 2026-09-02 00:42:28 | 52.79769 | -0.05201 | 166° | 9km/h | 25255m | 6.5m/s | -50.2°C | 3.2% | 0hPa | 2.6V | 00:00:00 | 01:52:21 | 00:00:00 | |
| DM0DOS-11 | 2026-09-02 00:42:25 | 52.79766 | -0.05233 | 85° | 15km/h | 25208m | 5.3m/s | -50°C | 3.1% | 0hPa | 2.6V | 08:30:00 | 01:52:13 | 00:00:00 | |
| BIOWL1-15 | 2026-09-02 00:42:14 | 52.79781 | -0.05268 | 70° | 5km/h | 25137m | 5.2m/s | -50°C | 0% | 0hPa | 2.6V | 18:12:15 | 01:52:01 | 00:00:00 | |
| DM0DOS-11 | 2026-09-02 00:42:12 | 52.79782 | -0.05266 | 88° | 2km/h | 25149m | 7.2m/s | -50°C | 3.1% | 0hPa | 2.5V | 08:30:00 | 01:52:03 | 00:00:00 | |
| BIOWL1-15 | 2026-09-02 00:41:55 | 52.79789 | -0.05342 | 90° | 13km/h | 25050m | 5.8m/s | -49.9°C | 0% | 0hPa | 2.6V | 18:12:15 | 01:51:46 | 00:00:00 | |
| DM0DOS-11 | 2026-09-02 00:41:53 | 52.79790 | -0.05357 | 118° | 11km/h | 25032m | 6.5m/s | -49.9°C | 3.1% | 0hPa | 2.5V | 08:30:00 | 01:51:43 | 00:00:00 | |
| BIOWL1-15 | 2026-09-02 00:41:45 | 52.79801 | -0.05380 | 165° | 7km/h | 24997m | 5m/s | -50°C | 0% | 0hPa | 2.5V | 18:12:15 | 01:51:37 | 00:00:00 | |
| DB0UT-7 | 2026-09-02 00:41:43 | 52.79803 | -0.05380 | 166° | 7km/h | 24992m | 5.2m/s | -50.0°C | 3.1% | 0hPa | 2.6V | 00:00:00 | 00:00:00 | 00:00:00 | |
| DM0DOS-11 | 2026-09-02 00:41:42 | 52.79805 | -0.05387 | 90° | 5km/h | 24974m | 5.5m/s | -50.1°C | 3.1% | 0hPa | 2.6V | 08:30:00 | 01:51:33 | 00:00:00 | |
| BIOWL9-15 | 2026-09-02 00:41:40 | 52.79805 | -0.05389 | 61° | 5km/h | 24968m | 6.8m/s | -50.2°C | 0.5% | -1.0hPa | 2.6V | 00:00:00 | 00:00:00 | 00:00:00 | |
| BIOWL1-15 | 2026-09-02 00:41:38 | 52.79793 | -0.05426 | 81° | 11km/h | 24865m | 4.6m/s | -49.9°C | 0% | 0hPa | 2.6V | 18:12:15 | 01:51:14 | 00:00:00 | |
| DM0DOS-11 | 2026-09-02 00:41:35 | 52.79797 | -0.05410 | 145° | 2km/h | 24915m | 6.7m/s | -50.2°C | 3.2% | 0hPa | 2.5V | 08:30:00 | 01:51:23 | 00:00:00 | |
| BIOWL1-15 | 2026-09-02 00:41:24 | 52.79793 | -0.05430 | 106° | 9km/h | 24859m | 6.7m/s | -49.9°C | 0% | 0hPa | 2.5V | 18:12:15 | 01:51:13 | 00:00:00 | |
| DM0DOS-11 | 2026-09-02 00:41:22 | 52.79793 | -0.05430 | 105° | 9km/h | 24859m | 6.7m/s | -49.9°C | 3% | 0hPa | 2.5V | 08:30:00 | 01:51:13 | 00:00:00 | |
| DM0DOS-11 | 2026-09-02 00:41:15 | 52.79810 | -0.05440 | 107° | 9km/h | 24800m | 6.9m/s | -50.2°C | 3.1% | 0hPa | 2.5V | 08:30:00 | 01:51:03 | 00:00:00 | |
| BIOWL1-15 | 2026-09-02 00:41:09 | 52.79816 | -0.05467 | 129° | 24km/h | 24777m | 5.6m/s | -50.3°C | 0% | 0hPa | 2.5V | 18:12:15 | 01:50:59 | 00:00:00 | |
| DJ2DS-15 | 2026-09-02 00:41:08 | 52.79811 | -0.05451 | 101° | 24km/h | 24789m | 4.7m/s | -50.2°C | 3.1% | 0hPa | 2.5V | 00:00:00 | 01:51:01 | 00:00:00 | |
| DM0DOS-11 | 2026-09-02 00:41:03 | 52.79847 | -0.05496 | 175° | 22km/h | 24743m | 6.4m/s | -50.5°C | 3.2% | 0hPa | 2.5V | 08:30:00 | 01:50:53 | 00:00:00 | |
| BIOWL1-15 | 2026-09-02 00:41:01 | 52.79853 | -0.05496 | 183° | 24km/h | 24737m | 5.7m/s | -50.5°C | 0% | 0hPa | 2.5V | 18:12:15 | 01:50:52 | 00:00:00 | |
| DM0DOS-11 | 2026-09-02 00:40:56 | 52.79888 | -0.05546 | 136° | 26km/h | 24690m | 4.7m/s | -50.5°C | 3.2% | 0hPa | 2.6V | 08:30:00 | 01:50:43 | 00:00:00 | |
| BIOWL1-15 | 2026-09-02 00:40:48 | 52.79899 | -0.05561 | 141° | 13km/h | 24672m | 5.1m/s | -50.5°C | 0% | 0hPa | 2.5V | 18:12:15 | 01:50:40 | 00:00:00 | |
| DJ2DS-15 | 2026-09-02 00:40:48 | 52.79896 | -0.05558 | 140° | 9km/h | 24678m | 5.8m/s | -50.4°C | 3.2% | 0hPa | 2.6V | 00:00:00 | 01:50:41 | 00:00:00 | |
| DB0UT-7 | 2026-09-02 00:40:43 | 52.79910 | -0.05570 | 148° | 7km/h | 24650m | 5.4m/s | -50.6°C | 3.2% | 0hPa | 2.6V | 00:00:00 | 00:00:00 | 00:00:00 | |
| DM0DOS-11 | 2026-09-02 00:40:42 | 52.79914 | -0.05581 | 105° | 13km/h | 24634m | 4.5m/s | -50.7°C | 3.2% | 0hPa | 2.5V | 08:30:00 | 01:50:33 | 00:00:00 | |
| BIOWL1-15 | 2026-09-02 00:40:40 | 52.79898 | -0.05620 | 333° | 5km/h | 24450m | 5.2m/s | -50.5°C | 0% | 0hPa | 2.6V | 18:12:15 | 01:49:59 | 00:00:00 | |
| BIOWL9-15 | 2026-09-02 00:40:37 | 52.79920 | -0.05594 | 135° | 11km/h | 24618m | 4.7m/s | -50.8°C | 0.5% | -1.0hPa | 2.6V | 00:00:00 | 00:00:00 | 00:00:00 | |
| DM0DOS-11 | 2026-09-02 00:40:35 | 52.79921 | -0.05603 | 109° | 7km/h | 24578m | 4.8m/s | -50.6°C | 3.2% | 0hPa | 2.6V | 08:30:00 | 01:50:23 | 00:00:00 | |
| DJ2DS-15 | 2026-09-02 00:40:28 | 52.79921 | -0.05610 | 74° | 7km/h | 24567m | 6.2m/s | -50.6°C | 3.2% | 0hPa | 2.6V | 00:00:00 | 01:50:21 | 00:00:00 | |
| BIOWL1-15 | 2026-09-02 00:40:23 | 52.79897 | -0.05619 | 36° | 2km/h | 24445m | 5.3m/s | -50.5°C | 0% | 0hPa | 2.6V | 18:12:15 | 01:49:58 | 00:00:00 | |
| BIOWL1-15 | 2026-09-02 00:40:13 | 52.79897 | -0.05620 | 108° | 4km/h | 24439m | 4.9m/s | -50.5°C | 0% | 0hPa | 2.6V | 18:12:15 | 01:49:57 | 00:00:00 | |
| DM0DOS-11 | 2026-09-02 00:40:12 | 52.79902 | -0.05629 | 292° | 4km/h | 24470m | 4.9m/s | -50.5°C | 3.2% | 0hPa | 2.5V | 08:30:00 | 01:50:03 | 00:00:00 | |
| DJ2DS-15 | 2026-09-02 00:40:08 | 52.79900 | -0.05624 | 299° | 5km/h | 24460m | 4.7m/s | -50.5°C | 3.2% | 0hPa | 2.5V | 00:00:00 | 01:50:01 | 00:00:00 | |
| BIOWL9-15 | 2026-09-02 00:40:06 | 52.79898 | -0.05620 | 332° | 5km/h | 24450m | 5.2m/s | -50.5°C | 0.5% | -1.0hPa | 2.5V | 00:00:00 | 00:00:00 | 00:00:00 | |
| DM0DOS-11 | 2026-09-02 00:40:05 | 52.79900 | -0.05626 | 78° | 2km/h | 24418m | 4.9m/s | -50.6°C | 3.2% | 0hPa | 2.5V | 08:30:00 | 01:49:53 | 00:00:00 | |
| BIOWL1-15 | 2026-09-02 00:39:54 | 52.79903 | -0.05654 | 111° | 11km/h | 24341m | 5.8m/s | 0°C | 0% | 0hPa | 2.6V | 18:12:15 | 01:49:39 | 00:00:00 | |
| DM0DOS-11 | 2026-09-02 00:39:53 | 52.79902 | -0.05644 | 117° | 7km/h | 24364m | 4.6m/s | -51°C | 3.2% | 0hPa | 2.5V | 08:30:00 | 01:49:43 | 00:00:00 | |
| DJ2DS-15 | 2026-09-02 00:39:47 | 52.79902 | -0.05650 | 96° | 9km/h | 24347m | 5.0m/s | -51.0°C | 3.2% | 0hPa | 2.5V | 00:00:00 | 01:49:40 | 00:00:00 | |
| DB0UT-7 | 2026-09-02 00:39:43 | 52.79905 | -0.05665 | 105° | 7km/h | 24326m | 6.0m/s | -51.1°C | 3.3% | 0hPa | 2.6V | 00:00:00 | 00:00:00 | 00:00:00 | |
| DM0DOS-11 | 2026-09-02 00:39:42 | 52.79906 | -0.05671 | 116° | 9km/h | 24310m | 5.7m/s | -51.1°C | 3.3% | 0hPa | 2.6V | 08:30:00 | 01:49:33 | 00:00:00 | |
| BIOWL1-15 | 2026-09-02 00:39:41 | 52.79912 | -0.05712 | 61° | 5km/h | 24254m | 5.7m/s | 0°C | 0% | 0hPa | 2.5V | 18:12:15 | 01:49:23 | 00:00:00 | |
| BIOWL9-15 | 2026-09-02 00:39:35 | 52.79913 | -0.05690 | 110° | 7km/h | 24283m | 5.3m/s | -51.3°C | 0.5% | -1.0hPa | 2.5V | 00:00:00 | 00:00:00 | 00:00:00 | |
| DM0DOS-11 | 2026-09-02 00:39:32 | 52.79912 | -0.05712 | 60° | 5km/h | 24254m | 5.7m/s | -51.4°C | 3.3% | 0hPa | 2.5V | 08:30:00 | 01:49:23 | 00:00:00 | |
| DJ2DS-15 | 2026-09-02 00:39:27 | 52.79910 | -0.05719 | 94° | 5km/h | 24239m | 4.0m/s | -51.4°C | 3.3% | 0hPa | 2.6V | 00:00:00 | 01:49:20 | 00:00:00 | |
| DM0DOS-11 | 2026-09-02 00:39:21 | 52.79913 | -0.05720 | 78° | 2km/h | 24201m | 5.7m/s | -51.4°C | 3.3% | 0hPa | 2.6V | 08:30:00 | 01:49:13 | 00:00:00 | |
| BIOWL1-15 | 2026-09-02 00:39:21 | 52.79913 | -0.05720 | 78° | 2km/h | 24201m | 5.7m/s | 0°C | 0% | 0hPa | 2.6V | 18:12:15 | 01:49:13 | 00:00:00 | |
| DM0DOS-11 | 2026-09-02 00:39:15 | 52.79903 | -0.05705 | 281° | 7km/h | 24146m | 5.7m/s | -51.7°C | 3.4% | 0hPa | 2.5V | 08:30:00 | 01:49:03 | 00:00:00 | |
| BIOWL1-15 | 2026-09-02 00:39:11 | 52.79903 | -0.05709 | 295° | 11km/h | 24152m | 5.5m/s | 0°C | 0% | 0hPa | 2.5V | 18:12:15 | 01:49:04 | 00:00:00 | |
| DJ2DS-15 | 2026-09-02 00:39:07 | 52.79903 | -0.05699 | 265° | 5km/h | 24129m | 5.7m/s | -51.7°C | 3.4% | 0hPa | 2.5V | 00:00:00 | 01:49:00 | 00:00:00 | |
| BIOWL9-15 | 2026-09-02 00:39:04 | 52.79908 | -0.05696 | 191° | 5km/h | 24107m | 5.0m/s | -51.7°C | 0.5% | -1.0hPa | 2.5V | 00:00:00 | 00:00:00 | 00:00:00 | |
| DM0DOS-11 | 2026-09-02 00:39:02 | 52.79911 | -0.05690 | 244° | 7km/h | 24091m | 4.7m/s | -51.7°C | 3.3% | 0hPa | 2.5V | 08:30:00 | 01:48:53 | 00:00:00 | |
| BIOWL1-15 | 2026-09-02 00:39:00 | 52.79912 | -0.05688 | 228° | 7km/h | 24086m | 6.1m/s | 0°C | 0% | 0hPa | 2.5V | 18:12:15 | 01:48:52 | 00:00:00 | |
| DM0DOS-11 | 2026-09-02 00:38:55 | 52.79920 | -0.05681 | 116° | 9km/h | 24037m | 5.5m/s | -51.7°C | 3.3% | 0hPa | 2.5V | 08:30:00 | 01:48:43 | 00:00:00 | |
| DJ2DS-15 | 2026-09-02 00:38:47 | 52.79920 | -0.05689 | 61° | 13km/h | 24021m | 4.0m/s | -51.7°C | 3.3% | 0hPa | 2.5V | 00:00:00 | 01:48:40 | 08:30:00 | |
| DB0UT-7 | 2026-09-02 00:38:43 | 52.79922 | -0.05700 | 120° | 16km/h | 24000m | 3.7m/s | -51.7°C | 3.4% | 0hPa | 2.5V | 00:00:00 | 00:00:00 | 00:00:00 | |
| DM0DOS-11 | 2026-09-02 00:38:42 | 52.79923 | -0.05709 | 64° | 5km/h | 23983m | 5.5m/s | -51.9°C | 3.4% | 0hPa | 2.5V | 08:30:00 | 01:48:33 | 00:00:00 | |
| DM0DOS-11 | 2026-09-02 00:38:35 | 52.79929 | -0.05778 | 99° | 18km/h | 23927m | 5.6m/s | -51.8°C | 3.3% | 0hPa | 2.6V | 08:30:00 | 01:48:23 | 00:00:00 | |
| DJ2DS-15 | 2026-09-02 00:38:32 | 52.79926 | -0.05761 | 99° | 22km/h | 23938m | 6.5m/s | -51.8°C | 0.5% | -1.0hPa | 2.5V | 00:00:00 | 00:00:00 | 00:00:00 | |
| DJ2DS-15 | 2026-09-02 00:38:27 | 52.79929 | -0.05794 | 89° | 16km/h | 23910m | 6.3m/s | -51.8°C | 3.4% | 0hPa | 2.5V | 00:00:00 | 01:48:20 | 00:00:00 | |
| DM0DOS-11 | 2026-09-02 00:38:23 | 52.79924 | -0.05845 | 89° | 22km/h | 23871m | 5.5m/s | -52.1°C | 3.4% | 0hPa | 2.5V | 08:30:00 | 01:48:13 | 00:00:00 | |
| DM0DOS-11 | 2026-09-02 00:38:16 | 52.79918 | -0.05919 | 52° | 18km/h | 23815m | 4.8m/s | -52°C | 3.5% | 0hPa | 2.6V | 08:30:00 | 01:48:03 | 00:00:00 | |
| DB0UT-7 | 2026-09-02 00:38:13 | 52.79922 | -0.05899 | 90° | 16km/h | 23832m | 4.8m/s | -52.1°C | 3.5% | 0hPa | 2.6V | 00:00:00 | 01:48:06 | 00:00:00 | |
| DJ2DS-15 | 2026-09-02 00:38:07 | 52.79909 | -0.05940 | 60° | 16km/h | 23798m | 5.0m/s | -51.9°C | 3.5% | 0hPa | 2.6V | 00:00:00 | 01:48:00 | 00:00:00 | |
| DM0DOS-11 | 2026-09-02 00:38:03 | 52.79890 | -0.05987 | 61° | 20km/h | 23760m | 6m/s | -51.9°C | 3.5% | 0hPa | 2.6V | 08:30:00 | 01:47:53 | 00:00:00 | |
| DM0DOS-11 | 2026-09-02 00:37:55 | 52.79866 | -0.06036 | 33° | 11km/h | 23702m | 6.1m/s | -51.9°C | 3.4% | 0hPa | 2.5V | 08:30:00 | 01:47:43 | 00:00:00 | |
| DJ2DS-15 | 2026-09-02 00:37:45 | 52.79847 | -0.06048 | 26° | 13km/h | 23674m | 6.4m/s | -51.9°C | 3.5% | 0hPa | 2.5V | 00:00:00 | 01:47:38 | 00:00:00 | |
| DB0UT-7 | 2026-09-02 00:37:43 | 52.79838 | -0.06055 | 28° | 15km/h | 23663m | 5.7m/s | -51.8°C | 3.5% | 0hPa | 2.5V | 00:00:00 | 00:00:00 | 00:00:00 | |
| DM0DOS-11 | 2026-09-02 00:37:42 | 52.79826 | -0.06062 | 13° | 16km/h | 23646m | 4.2m/s | -51.7°C | 3.4% | 0hPa | 2.6V | 08:30:00 | 01:47:33 | 00:00:00 | |
| DM0DOS-11 | 2026-09-02 00:37:35 | 52.79800 | -0.06084 | 13° | 9km/h | 23590m | 6.3m/s | -51.5°C | 3.3% | 0hPa | 2.5V | 08:30:00 | 01:47:23 | 00:00:00 | |
| DJ2DS-15 | 2026-09-02 00:37:25 | 52.79788 | -0.06083 | 345° | 11km/h | 23562m | 5.0m/s | -51.5°C | 3.3% | 0hPa | 2.5V | 00:00:00 | 01:47:18 | 00:00:00 | |
| DM0DOS-11 | 2026-09-02 00:37:22 | 52.79779 | -0.06093 | 57° | 13km/h | 23534m | 6.5m/s | -51.8°C | 3.4% | 0hPa | 2.5V | 08:30:00 | 01:47:13 | 00:00:00 | |
| DJ2DS-15 | 2026-09-02 00:37:20 | 52.79779 | -0.06093 | 57° | 13km/h | 23534m | 6.5m/s | -51.8°C | 0.5% | -1.0hPa | 2.6V | 00:00:00 | 00:00:00 | 00:00:00 | |
| DM0DOS-11 | 2026-09-02 00:37:15 | 52.79760 | -0.06126 | 54° | 15km/h | 23476m | 5.8m/s | -52.1°C | 3.5% | 0hPa | 2.6V | 08:30:00 | 01:47:03 | 00:00:00 | |
| DJ2DS-15 | 2026-09-02 00:37:05 | 52.79751 | -0.06155 | 53° | 11km/h | 23449m | 6.4m/s | -51.9°C | 3.5% | 0hPa | 2.5V | 00:00:00 | 01:46:58 | 00:00:00 | |
| DM0DOS-11 | 2026-09-02 00:37:02 | 52.79737 | -0.06180 | 55° | 15km/h | 23420m | 5.2m/s | -51.8°C | 3.5% | 0hPa | 2.5V | 08:30:00 | 01:46:53 | 00:00:00 | |
| BIOWL1-15 | 2026-09-02 00:36:58 | 52.79729 | -0.06200 | 71° | 11km/h | 23397m | 6.4m/s | -51.6°C | 0% | 0hPa | 2.5V | 18:12:15 | 01:46:49 | 00:00:00 | |
| DM0DOS-11 | 2026-09-02 00:36:54 | 52.79720 | -0.06218 | 44° | 11km/h | 23364m | 5.9m/s | -51.4°C | 3.4% | 0hPa | 2.6V | 08:30:00 | 01:46:43 | 00:00:00 | |
| BIOWL1-15 | 2026-09-02 00:36:52 | 52.79717 | -0.06223 | 40° | 7km/h | 23353m | 4.5m/s | -51.4°C | 0% | 0hPa | 2.5V | 18:12:15 | 01:46:41 | 00:00:00 | |
| DJ2DS-15 | 2026-09-02 00:36:45 | 52.79711 | -0.06227 | 28° | 7km/h | 23338m | 4.6m/s | -51.3°C | 3.3% | 0hPa | 2.6V | 00:00:00 | 01:46:38 | 00:00:00 | |
| DM0DOS-11 | 2026-09-02 00:36:42 | 52.79707 | -0.06241 | 72° | 7km/h | 23308m | 4.7m/s | -51.4°C | 3.4% | 0hPa | 2.6V | 08:30:00 | 01:46:33 | 00:00:00 | |
| BIOWL1-15 | 2026-09-02 00:36:37 | 52.79709 | -0.06236 | 260° | 11km/h | 23263m | 4.5m/s | -51.5°C | 0% | 0hPa | 2.6V | 18:12:15 | 01:46:25 | 00:00:00 | |
| DM0DOS-11 | 2026-09-02 00:36:31 | 52.79708 | -0.06227 | 282° | 9km/h | 23253m | 6.1m/s | -51.4°C | 3.4% | 0hPa | 2.5V | 08:30:00 | 01:46:23 | 00:00:00 | |
| BIOWL1-15 | 2026-09-02 00:36:27 | 52.79708 | -0.06224 | 146° | 5km/h | 23236m | 6m/s | -51.3°C | 0% | 0hPa | 2.6V | 18:12:15 | 01:46:20 | 00:00:00 | |
| DM0DOS-11 | 2026-09-02 00:36:25 | 52.79719 | -0.06247 | 194° | 7km/h | 23196m | 4.7m/s | -51.4°C | 3.3% | 0hPa | 2.5V | 08:30:00 | 01:46:13 | 00:00:00 | |
| DJ2DS-15 | 2026-09-02 00:36:25 | 52.79712 | -0.06230 | 127° | 9km/h | 23225m | 5.8m/s | -51.2°C | 3.3% | 0hPa | 2.6V | 00:00:00 | 01:46:18 | 00:00:00 | |
| BIOWL1-15 | 2026-09-02 00:36:14 | 52.79740 | -0.06279 | 101° | 13km/h | 23105m | 6.2m/s | -51.6°C | 0% | 0hPa | 2.6V | 18:12:15 | 01:45:56 | 00:00:00 | |
| DM0DOS-11 | 2026-09-02 00:36:12 | 52.79733 | -0.06258 | 112° | 11km/h | 23144m | 5.2m/s | -51.5°C | 3.3% | 0hPa | 2.5V | 08:30:00 | 01:46:03 | 00:00:00 | |
| BIOWL1-15 | 2026-09-02 00:36:09 | 52.79743 | -0.06290 | 108° | 18km/h | 23094m | 5.2m/s | -51.6°C | 0% | 0hPa | 2.5V | 18:12:15 | 01:45:54 | 00:00:00 | |
| DJ2DS-15 | 2026-09-02 00:36:08 | 52.79735 | -0.06265 | 133° | 7km/h | 23133m | 6.2m/s | -51.5°C | 0.5% | -1.0hPa | 2.5V | 00:00:00 | 00:00:00 | 00:00:00 | |
| DM0DOS-11 | 2026-09-02 00:36:05 | 52.79744 | -0.06298 | 101° | 20km/h | 23088m | 6.7m/s | -51.7°C | 3.3% | 0hPa | 2.5V | 08:30:00 | 01:45:53 | 00:00:00 | |
| DJ2DS-15 | 2026-09-02 00:36:05 | 52.79739 | -0.06271 | 117° | 16km/h | 23117m | 5.9m/s | -51.5°C | 3.3% | 0hPa | 2.5V | 00:00:00 | 01:45:58 | 00:00:00 | |
| BIOWL9-15 | 2026-09-02 00:35:58 | 52.79746 | -0.06316 | 103° | 20km/h | 23076m | 5.3m/s | -51.7°C | 0.5% | -1.0hPa | 2.5V | 00:00:00 | 00:00:00 | 00:00:00 | |
| DM0DOS-11 | 2026-09-02 00:35:53 | 52.79752 | -0.06376 | 93° | 20km/h | 23022m | 6.7m/s | -52°C | 3.4% | 0hPa | 2.5V | 08:30:00 | 01:45:41 | 00:00:00 | |
| BIOWL1-15 | 2026-09-02 00:35:52 | 52.79750 | -0.06353 | 78° | 11km/h | 23043m | 4.8m/s | -52°C | 0% | 0hPa | 2.5V | 18:12:15 | 01:45:45 | 00:00:00 | |
| DJ2DS-15 | 2026-09-02 00:35:45 | 52.79753 | -0.06409 | 95° | 20km/h | 23005m | 5.8m/s | -51.9°C | 3.4% | 0hPa | 2.6V | 00:00:00 | 01:45:38 | 08:30:00 | |
| DM0DOS-11 | 2026-09-02 00:35:43 | 52.79755 | -0.06464 | 73° | 7km/h | 22965m | 5.8m/s | -51.9°C | 3.4% | 0hPa | 2.6V | 08:30:00 | 01:45:31 | 00:00:00 | |
| BIOWL1-15 | 2026-09-02 00:35:42 | 52.79757 | -0.06441 | 98° | 22km/h | 22988m | 5.1m/s | -51.9°C | 0% | 0hPa | 2.5V | 18:12:15 | 01:45:35 | 00:00:00 | |
| DM0DOS-11 | 2026-09-02 00:35:33 | 52.79743 | -0.06541 | 66° | 22km/h | 22913m | 6.7m/s | -52°C | 3.5% | 0hPa | 2.6V | 08:30:00 | 01:45:21 | 00:00:00 | |
| BIOWL1-15 | 2026-09-02 00:35:31 | 52.79745 | -0.06533 | 69° | 20km/h | 22919m | 4.6m/s | -52°C | 0% | 0hPa | 2.5V | 18:12:15 | 01:45:22 | 00:00:00 | |
| BIOWL9-15 | 2026-09-02 00:35:27 | 52.79738 | -0.06558 | 58° | 24km/h | 22901m | 5.4m/s | 0°C | -1.0% | -1.0hPa | 2.5V | 00:00:00 | 00:00:00 | 00:00:00 | |
| DJ2DS-15 | 2026-09-02 00:35:25 | 52.79734 | -0.06566 | 59° | 20km/h | 22895m | 6.4m/s | -51.8°C | 3.5% | 0hPa | 2.5V | 00:00:00 | 01:45:18 | 00:00:00 | |
| BIOWL1-15 | 2026-09-02 00:35:21 | 52.79694 | -0.06713 | 64° | 18km/h | 22789m | 6m/s | -51.7°C | 0% | 0hPa | 2.5V | 18:12:15 | 01:44:59 | 00:00:00 | |
| DM0DOS-11 | 2026-09-02 00:35:12 | 52.79699 | -0.06699 | 60° | 18km/h | 22800m | 4.4m/s | -51.8°C | 3.5% | 0hPa | 2.5V | 08:30:00 | 01:45:01 | 00:00:00 | |
| BIOWL1-15 | 2026-09-02 00:35:10 | 52.79687 | -0.06742 | 64° | 20km/h | 22766m | 5.4m/s | -51.7°C | 0% | 0hPa | 2.6V | 18:12:15 | 01:44:55 | 00:00:00 | |
| DJ2DS-15 | 2026-09-02 00:35:05 | 52.79692 | -0.06720 | 69° | 13km/h | 22783m | 5.2m/s | -51.7°C | 3.4% | 0hPa | 2.5V | 00:00:00 | 01:44:58 | 00:00:00 | |
| DM0DOS-11 | 2026-09-02 00:35:02 | 52.79683 | -0.06767 | 84° | 11km/h | 22744m | 5.8m/s | -51.6°C | 3.4% | 0hPa | 2.5V | 08:30:00 | 01:44:51 | 00:00:00 | |
| BIOWL1-15 | 2026-09-02 00:34:58 | 52.79681 | -0.06775 | 51° | 9km/h | 22733m | 5m/s | -51.6°C | 0% | 0hPa | 2.6V | 18:12:15 | 01:44:49 | 00:00:00 | |
| DJ2DS-15 | 2026-09-02 00:34:56 | 52.79681 | -0.06775 | 51° | 9km/h | 22733m | 5.0m/s | -51.6°C | 0.6% | -1.0hPa | 2.5V | 00:00:00 | 00:00:00 | 00:00:00 | |
| DM0DOS-11 | 2026-09-02 00:34:52 | 52.79669 | -0.06790 | 72° | 11km/h | 22688m | 6.4m/s | -51.5°C | 3.5% | 0hPa | 2.5V | 08:30:00 | 01:44:41 | 00:00:00 | |
| BIOWL1-15 | 2026-09-02 00:34:45 | 52.79670 | -0.06805 | 93° | 11km/h | 22672m | 5.9m/s | 0°C | 0% | 0hPa | 2.6V | 18:12:15 | 01:44:38 | 00:00:00 | |
| DM0DOS-11 | 2026-09-02 00:34:42 | 52.79667 | -0.06816 | 304° | 5km/h | 22633m | 5.8m/s | -51.2°C | 3.4% | 0hPa | 2.6V | 08:30:00 | 01:44:31 | 00:00:00 | |
| BIOWL1-15 | 2026-09-02 00:34:37 | 52.79664 | -0.06817 | 69° | 4km/h | 22618m | 5.7m/s | 0°C | 0% | 0hPa | 2.5V | 18:12:15 | 01:44:28 | 00:00:00 | |
| DM0DOS-11 | 2026-09-02 00:34:31 | 52.79667 | -0.06841 | 132° | 5km/h | 22579m | 5.2m/s | -51.1°C | 3.3% | 0hPa | 2.6V | 08:30:00 | 01:44:21 | 00:00:00 | |
| DB0UT-7 | 2026-09-02 00:34:26 | 52.79668 | -0.06842 | 331° | 13km/h | 22568m | 5.2m/s | -51.0°C | 3.3% | 0hPa | 2.5V | 00:00:00 | 01:44:19 | 00:00:00 | |
| DJ2DS-15 | 2026-09-02 00:34:25 | 52.79668 | -0.06842 | 265° | 11km/h | 22563m | 4.3m/s | -51.0°C | 3.3% | 0hPa | 2.5V | 00:00:00 | 01:44:18 | 00:00:00 | |
| DM0DOS-11 | 2026-09-02 00:34:21 | 52.79678 | -0.06855 | 105° | 18km/h | 22525m | 5.7m/s | -51°C | 3.3% | 0hPa | 2.5V | 08:30:00 | 01:44:11 | 00:00:00 | |
| DJ2DS-15 | 2026-09-02 00:34:20 | 52.79675 | -0.06844 | 122° | 9km/h | 22536m | 6.1m/s | -51.1°C | 0.6% | -1.0hPa | 2.5V | 00:00:00 | 00:00:00 | 00:00:00 | |
| DJ2DS-15 | 2026-09-02 00:34:05 | 52.79692 | -0.06912 | 128° | 18km/h | 22456m | 5.9m/s | -51.0°C | 3.2% | 0hPa | 2.5V | 00:00:00 | 01:43:58 | 00:00:00 | |
| DM0DOS-11 | 2026-09-02 00:34:02 | 52.79701 | -0.06948 | 99° | 22km/h | 22427m | 5.8m/s | -51.2°C | 3.3% | 0hPa | 2.5V | 08:30:00 | 01:43:53 | 00:00:00 | |
| DM0DOS-11 | 2026-09-02 00:33:56 | 52.79706 | -0.07004 | 89° | 15km/h | 22374m | 5.2m/s | -51.7°C | 3.4% | 0hPa | 2.5V | 08:30:00 | 01:43:43 | 00:00:00 | |
| DJ2DS-15 | 2026-09-02 00:33:45 | 52.79710 | -0.07061 | 92° | 33km/h | 22347m | 6.1m/s | -51.6°C | 3.4% | 0hPa | 2.5V | 00:00:00 | 01:43:38 | 00:00:00 | |
| DM0DOS-11 | 2026-09-02 00:33:43 | 52.79710 | -0.07129 | 86° | 27km/h | 22320m | 4.5m/s | -51.7°C | 3.4% | 0hPa | 2.6V | 08:30:00 | 01:43:33 | 00:00:00 | |
| DM0DOS-11 | 2026-09-02 00:33:35 | 52.79694 | -0.07250 | 85° | 37km/h | 22267m | 6m/s | -52.3°C | 3.5% | 0hPa | 2.6V | 08:30:00 | 01:43:23 | 00:00:00 | |
| DB0UT-7 | 2026-09-02 00:33:26 | 52.79688 | -0.07310 | 73° | 29km/h | 22246m | 4.6m/s | -52.3°C | 3.5% | 0hPa | 2.5V | 00:00:00 | 01:43:19 | 00:00:00 | |
| DJ2DS-15 | 2026-09-02 00:33:25 | 52.79685 | -0.07324 | 75° | 31km/h | 22240m | 5.8m/s | -52.2°C | 3.5% | 0hPa | 2.5V | 00:00:00 | 01:43:18 | 00:00:00 | |
| DM0DOS-11 | 2026-09-02 00:33:23 | 52.79670 | -0.07392 | 69° | 31km/h | 22214m | 5.6m/s | -52.2°C | 3.5% | 0hPa | 2.5V | 08:30:00 | 01:43:13 | 00:00:00 | |
| DM0DOS-11 | 2026-09-02 00:33:15 | 52.79649 | -0.07509 | 64° | 26km/h | 22160m | 6.7m/s | -51.9°C | 3.5% | 0hPa | 2.5V | 08:30:00 | 01:43:03 | 00:00:00 | |
| DJ2DS-15 | 2026-09-02 00:33:05 | 52.79630 | -0.07560 | 63° | 26km/h | 22134m | 4.1m/s | -51.8°C | 3.4% | 0hPa | 2.5V | 00:00:00 | 01:42:58 | 00:00:00 | |
| DM0DOS-11 | 2026-09-02 00:33:02 | 52.79613 | -0.07612 | 71° | 27km/h | 22107m | 4.6m/s | -51.8°C | 3.4% | 0hPa | 2.5V | 08:30:00 | 01:42:53 | 00:00:00 | |
| DB0UT-7 | 2026-09-02 00:32:56 | 52.79602 | -0.07648 | 53° | 18km/h | 22087m | 4.6m/s | -51.7°C | 3.4% | 0hPa | 2.6V | 00:00:00 | 00:00:00 | 00:00:00 | |
| DM0DOS-11 | 2026-09-02 00:32:50 | 52.79573 | -0.07701 | 51° | 20km/h | 22042m | 5.2m/s | -51.9°C | 3.4% | 0hPa | 2.6V | 08:30:00 | 01:42:41 | 00:00:00 | |
| DJ2DS-15 | 2026-09-02 00:32:45 | 52.79563 | -0.07721 | 49° | 18km/h | 22026m | 5.1m/s | -52.0°C | 3.5% | 0hPa | 2.5V | 00:00:00 | 01:42:38 | 08:30:00 | |
| DM0DOS-11 | 2026-09-02 00:32:33 | 52.79552 | -0.07822 | 92° | 18km/h | 21943m | 6.6m/s | -51.6°C | 3.4% | 0hPa | 2.6V | 08:30:00 | 01:42:24 | 00:00:00 | |
| DJ2DS-15 | 2026-09-02 00:32:32 | 52.79552 | -0.07822 | 92° | 18km/h | 21943m | 6.6m/s | -51.7°C | 0.6% | -1.0hPa | 2.6V | 00:00:00 | 00:00:00 | 00:00:00 | |
| DB0UT-7 | 2026-09-02 00:32:26 | 52.79552 | -0.07856 | 93° | 22km/h | 21913m | 6.5m/s | -51.4°C | 3.4% | 0hPa | 2.6V | 00:00:00 | 01:42:19 | 00:00:00 | |
| DJ2DS-15 | 2026-09-02 00:32:25 | 52.79552 | -0.07863 | 93° | 20km/h | 21907m | 5.7m/s | -51.4°C | 3.4% | 0hPa | 2.6V | 00:00:00 | 01:42:18 | 00:00:00 | |
| DM0DOS-11 | 2026-09-02 00:32:23 | 52.79548 | -0.07893 | 61° | 22km/h | 21884m | 4.5m/s | -51.4°C | 3.4% | 0hPa | 2.6V | 08:30:00 | 01:42:14 | 00:00:00 | |
| DM0DOS-11 | 2026-09-02 00:32:13 | 52.79531 | -0.07974 | 67° | 15km/h | 21828m | 6.3m/s | -51.3°C | 3.3% | 0hPa | 2.5V | 08:30:00 | 01:42:04 | 00:00:00 | |
| DM0DOS-11 | 2026-09-02 00:32:06 | 52.79509 | -0.08057 | 71° | 27km/h | 21774m | 5.9m/s | -51.8°C | 3.4% | 0hPa | 2.5V | 08:30:00 | 01:41:54 | 00:00:00 | |
| DJ2DS-15 | 2026-09-02 00:32:05 | 52.79521 | -0.08016 | 66° | 24km/h | 21795m | 6.1m/s | -51.3°C | 3.3% | 0hPa | 2.5V | 00:00:00 | 01:41:58 | 00:00:00 | |
| DJ2DS-15 | 2026-09-02 00:31:56 | 52.79496 | -0.08113 | 71° | 20km/h | 21740m | 6.6m/s | -51.8°C | 0.6% | -1.0hPa | 2.5V | 00:00:00 | 00:00:00 | 00:00:00 | |
| DM0DOS-11 | 2026-09-02 00:31:54 | 52.79489 | -0.08143 | 62° | 22km/h | 21718m | 4.2m/s | -51.9°C | 3.3% | 0hPa | 2.5V | 08:30:00 | 01:41:44 | 00:00:00 | |
| DJ2DS-15 | 2026-09-02 00:31:45 | 52.79481 | -0.08207 | 91° | 27km/h | 21685m | 5.6m/s | -52.2°C | 3.5% | 0hPa | 2.5V | 00:00:00 | 01:41:38 | 00:00:00 | |
| DM0DOS-11 | 2026-09-02 00:31:44 | 52.79484 | -0.08250 | 100° | 26km/h | 21660m | 5.8m/s | -52.3°C | 3.5% | 0hPa | 2.6V | 08:30:00 | 01:41:34 | 00:00:00 | |
| DM0DOS-11 | 2026-09-02 00:31:33 | 52.79490 | -0.08361 | 88° | 29km/h | 21605m | 5m/s | -52.1°C | 3.5% | 0hPa | 2.5V | 08:30:00 | 01:41:24 | 00:00:00 | |
| DB0UT-7 | 2026-09-02 00:31:26 | 52.79481 | -0.08421 | 83° | 20km/h | 21576m | 5.3m/s | -52.1°C | 3.5% | 0hPa | 2.5V | 00:00:00 | 01:41:19 | 00:00:00 | |
| DJ2DS-15 | 2026-09-02 00:31:25 | 52.79481 | -0.08431 | 87° | 20km/h | 21572m | 4.4m/s | -52.1°C | 3.5% | 0hPa | 2.5V | 00:00:00 | 01:41:18 | 00:00:00 | |
| DM0DOS-11 | 2026-09-02 00:31:22 | 52.79478 | -0.08462 | 85° | 16km/h | 21548m | 6.2m/s | -52.3°C | 3.5% | 0hPa | 2.5V | 08:30:00 | 01:41:14 | 00:00:00 | |
| DJ2DS-15 | 2026-09-02 00:31:19 | 52.79477 | -0.08477 | 70° | 18km/h | 21538m | 5.4m/s | -52.5°C | 0.6% | -1.0hPa | 2.6V | 00:00:00 | 00:00:00 | 00:00:00 | |
| DM0DOS-11 | 2026-09-02 00:31:16 | 52.79447 | -0.08558 | 49° | 24km/h | 21493m | 4.8m/s | -52.3°C | 3.6% | 0hPa | 2.6V | 08:30:00 | 01:41:04 | 00:00:00 | |
| DJ2DS-15 | 2026-09-02 00:31:05 | 52.79437 | -0.08584 | 45° | 15km/h | 21459m | 4.2m/s | -51.9°C | 3.6% | 0hPa | 2.6V | 00:00:00 | 01:40:58 | 00:00:00 | |
| DM0DOS-11 | 2026-09-02 00:30:56 | 52.79406 | -0.08659 | 69° | 9km/h | 21380m | 5.2m/s | -51.3°C | 3.4% | 0hPa | 2.6V | 08:30:00 | 01:40:44 | 00:00:00 | |
| DB0UT-7 | 2026-09-02 00:30:56 | 52.79410 | -0.08642 | 44° | 7km/h | 21409m | 5.3m/s | -51.5°C | 3.5% | 0hPa | 2.5V | 00:00:00 | 00:00:00 | 00:00:00 | |
| DJ2DS-15 | 2026-09-02 00:30:45 | 52.79403 | -0.08681 | 61° | 7km/h | 21347m | 5.2m/s | -50.9°C | 3.4% | 0hPa | 2.5V | 00:00:00 | 01:40:38 | 00:00:00 | |
| DJ2DS-15 | 2026-09-02 00:30:43 | 52.79400 | -0.08689 | 57° | 7km/h | 21335m | 5.7m/s | -50.9°C | 0.6% | -1.0hPa | 2.5V | 00:00:00 | 00:00:00 | 00:00:00 | |
| DM0DOS-11 | 2026-09-02 00:30:42 | 52.79398 | -0.08694 | 58° | 7km/h | 21324m | 6.2m/s | -50.8°C | 3.3% | 0hPa | 2.5V | 08:30:00 | 01:40:34 | 00:00:00 | |
| DJ2DS-15 | 2026-09-02 00:30:25 | 52.79396 | -0.08723 | 250° | 7km/h | 21234m | 4.0m/s | -50.6°C | 3.3% | 0hPa | 2.5V | 00:00:00 | 01:40:18 | 00:00:00 | |
| DJ2DS-15 | 2026-09-02 00:30:05 | 52.79419 | -0.08742 | 154° | 9km/h | 21129m | 5.1m/s | -50.1°C | 3.2% | 0hPa | 2.5V | 00:00:00 | 01:39:58 | 00:00:00 | |
| DB0UT-7 | 2026-09-02 00:29:55 | 52.79442 | -0.08758 | 155° | 15km/h | 21079m | 5.2m/s | -49.8°C | 3.1% | 0hPa | 2.5V | 00:00:00 | 00:00:00 | 00:00:00 | |
| DJ2DS-15 | 2026-09-02 00:29:45 | 52.79459 | -0.08781 | 135° | 15km/h | 21029m | 4.7m/s | -49.8°C | 3.1% | 0hPa | 2.5V | 00:00:00 | 01:39:38 | 08:30:00 | |
| DJ2DS-15 | 2026-09-02 00:29:31 | 52.79475 | -0.08851 | 109° | 16km/h | 20958m | 5.2m/s | -50.5°C | 0.6% | -1.0hPa | 2.5V | 00:00:00 | 00:00:00 | 00:00:00 | |
| DJ2DS-15 | 2026-09-02 00:29:25 | 52.79479 | -0.08893 | 95° | 31km/h | 20927m | 4.2m/s | -50.7°C | 3.2% | 0hPa | 2.5V | 00:00:00 | 01:39:18 | 00:00:00 | |
| DB0UT-7 | 2026-09-02 00:29:24 | 52.79479 | -0.08901 | 93° | 35km/h | 20923m | 3.8m/s | -50.8°C | 3.2% | 0hPa | 2.5V | 00:00:00 | 01:39:17 | 00:00:00 | |
| DJ2DS-15 | 2026-09-02 00:29:05 | 52.79451 | -0.09150 | 65° | 37km/h | 20825m | 5.9m/s | -51.8°C | 3.4% | 0hPa | 2.5V | 00:00:00 | 01:38:58 | 00:00:00 | |
| DB0UT-7 | 2026-09-02 00:28:54 | 52.79410 | -0.09316 | 67° | 27km/h | 20771m | 6.1m/s | 0°C | 0% | 0hPa | 2.5V | 00:00:00 | 00:00:00 | 00:00:00 | |
| DM0DOS-11 | 2026-09-02 00:28:51 | 52.79382 | -0.09401 | 57° | 29km/h | 20733m | 4.8m/s | -51.8°C | 3.5% | 0hPa | 2.5V | 08:30:00 | 01:38:40 | 00:00:00 | |
| DJ2DS-15 | 2026-09-02 00:28:45 | 52.79376 | -0.09422 | 72° | 26km/h | 20723m | 5.7m/s | -51.7°C | 3.5% | 0hPa | 2.5V | 00:00:00 | 01:38:38 | 00:00:00 | |
| DM0DOS-11 | 2026-09-02 00:28:31 | 52.79334 | -0.09567 | 68° | 24km/h | 20645m | 4.2m/s | -51.8°C | 3.4% | 0hPa | 2.5V | 08:30:00 | 01:38:23 | 00:00:00 | |
| DJ2DS-15 | 2026-09-02 00:28:25 | 52.79325 | -0.09617 | 74° | 27km/h | 20619m | 4.0m/s | -52.2°C | 3.5% | 0hPa | 2.5V | 00:00:00 | 01:38:18 | 00:00:00 | |
| DB0UT-7 | 2026-09-02 00:28:24 | 52.79324 | -0.09626 | 83° | 27km/h | 20614m | 5.6m/s | 0°C | 0% | 0hPa | 2.5V | 00:00:00 | 01:38:17 | 00:00:00 | |
| DM0DOS-11 | 2026-09-02 00:28:21 | 52.79324 | -0.09660 | 93° | 20km/h | 20591m | 4.4m/s | -52.4°C | 3.6% | 0hPa | 2.5V | 08:30:00 | 01:38:13 | 00:00:00 | |
| DJ2DS-15 | 2026-09-02 00:28:19 | 52.79325 | -0.09669 | 96° | 18km/h | 20587m | 3.8m/s | -52.3°C | 0.7% | -1.0hPa | 2.5V | 00:00:00 | 00:00:00 | 00:00:00 | |
| DM0DOS-11 | 2026-09-02 00:28:11 | 52.79337 | -0.09773 | 97° | 37km/h | 20541m | 5m/s | -52.1°C | 3.5% | 0hPa | 2.5V | 08:30:00 | 01:38:03 | 00:00:00 | |
| DJ2DS-15 | 2026-09-02 00:28:05 | 52.79341 | -0.09847 | 98° | 31km/h | 20515m | 4.1m/s | -51.9°C | 3.4% | 0hPa | 2.5V | 00:00:00 | 01:37:58 | 00:00:00 | |
| DM0DOS-11 | 2026-09-02 00:28:01 | 52.79345 | -0.09908 | 100° | 29km/h | 20490m | 5.1m/s | -52.1°C | 3.5% | 0hPa | 2.5V | 08:30:00 | 01:37:53 | 00:00:00 | |
| DB0UT-7 | 2026-09-02 00:27:54 | 52.79352 | -0.09981 | 94° | 20km/h | 20461m | 5.0m/s | 0°C | 0% | 0hPa | 2.6V | 00:00:00 | 00:00:00 | 00:00:00 | |
| DM0DOS-11 | 2026-09-02 00:27:51 | 52.79349 | -0.10039 | 78° | 33km/h | 20440m | 4.6m/s | -52.2°C | 3.6% | 0hPa | 2.6V | 08:30:00 | 01:37:43 | 00:00:00 | |
| DJ2DS-15 | 2026-09-02 00:27:45 | 52.79347 | -0.10098 | 89° | 24km/h | 20415m | 5.8m/s | -52.1°C | 3.5% | 0hPa | 2.6V | 00:00:00 | 01:37:38 | 00:00:00 | |
| DM0DOS-11 | 2026-09-02 00:27:41 | 52.79349 | -0.10141 | 87° | 20km/h | 20389m | 5.3m/s | -52.4°C | 3.6% | 0hPa | 2.6V | 08:30:00 | 01:37:33 | 00:00:00 | |
| DM0DOS-11 | 2026-09-02 00:27:31 | 52.79334 | -0.10242 | 80° | 29km/h | 20338m | 5.5m/s | -52.2°C | 3.6% | 0hPa | 2.6V | 08:30:00 | 01:37:23 | 00:00:00 | |
| DJ2DS-15 | 2026-09-02 00:27:25 | 52.79328 | -0.10290 | 77° | 20km/h | 20311m | 5.9m/s | -51.9°C | 3.6% | 0hPa | 2.6V | 00:00:00 | 01:37:18 | 00:00:00 | |
| DM0DOS-11 | 2026-09-02 00:27:21 | 52.79322 | -0.10332 | 70° | 22km/h | 20283m | 5m/s | -51.8°C | 3.6% | 0hPa | 2.6V | 08:30:00 | 01:37:13 | 00:00:00 | |
| DM0DOS-11 | 2026-09-02 00:27:11 | 52.79314 | -0.10424 | 87° | 13km/h | 20230m | 4.2m/s | -51.5°C | 3.5% | 0hPa | 2.5V | 08:30:00 | 01:37:03 | 00:00:00 | |
| DJ2DS-15 | 2026-09-02 00:27:05 | 52.79313 | -0.10454 | 74° | 16km/h | 20202m | 5.0m/s | -51.2°C | 3.5% | 0hPa | 2.6V | 00:00:00 | 01:36:58 | 00:00:00 | |
| DM0DOS-11 | 2026-09-02 00:27:01 | 52.79309 | -0.10496 | 79° | 20km/h | 20176m | 5.2m/s | -51°C | 3.4% | 0hPa | 2.6V | 08:30:00 | 01:36:53 | 00:00:00 | |
| DM0DOS-11 | 2026-09-02 00:26:56 | 52.79310 | -0.10557 | 89° | 11km/h | 20122m | 6.2m/s | -50.6°C | 3.3% | 0hPa | 2.6V | 08:30:00 | 01:36:43 | 00:00:00 | |
| DM0DOS-11 | 2026-09-02 00:26:45 | 52.79313 | -0.10604 | 73° | 2km/h | 20069m | 5.8m/s | -50.7°C | 3.4% | 0hPa | 2.6V | 08:30:00 | 01:36:33 | 00:00:00 | |
| DJ2DS-15 | 2026-09-02 00:26:45 | 52.79313 | -0.10587 | 105° | 11km/h | 20096m | 4.6m/s | -50.8°C | 3.4% | 0hPa | 2.6V | 00:00:00 | 01:36:38 | 08:30:00 | |
| DB0UT-7 | 2026-09-02 00:26:43 | 52.79314 | -0.10598 | 72° | 7km/h | 20085m | 4.6m/s | 0°C | 0% | 0hPa | 2.6V | 00:00:00 | 01:36:36 | 00:00:00 | |
| DM0DOS-11 | 2026-09-02 00:26:35 | 52.79320 | -0.10637 | 127° | 20km/h | 20012m | 6.8m/s | -50.2°C | 3.3% | 0hPa | 2.6V | 08:30:00 | 01:36:23 | 00:00:00 | |
| DM0DOS-11 | 2026-09-02 00:26:25 | 52.79336 | -0.10685 | 84° | 15km/h | 19954m | 5.2m/s | -49.7°C | 3.2% | 0hPa | 2.5V | 08:30:00 | 01:36:13 | 00:00:00 | |
| DJ2DS-15 | 2026-09-02 00:26:25 | 52.79334 | -0.10660 | 118° | 15km/h | 19984m | 6.1m/s | -49.9°C | 3.3% | 0hPa | 2.6V | 00:00:00 | 01:36:18 | 00:00:00 | |
| DM0DOS-11 | 2026-09-02 00:26:15 | 52.79357 | -0.10737 | 169° | 7km/h | 19895m | 5.1m/s | -49.5°C | 3.1% | 0hPa | 2.6V | 08:30:00 | 01:36:03 | 00:00:00 | |
| DJ2DS-15 | 2026-09-02 00:26:03 | 52.79368 | -0.10773 | 113° | 27km/h | 19853m | 5.3m/s | 0°C | 0% | 0hPa | 2.7V | 00:00:00 | 01:35:56 | 00:00:00 | |
| BIOWL1-15 | 2026-09-02 00:25:34 | 52.79377 | -0.11127 | 66° | 40km/h | 19681m | 6.4m/s | 0°C | 0% | 0hPa | 2.7V | 18:12:15 | 01:35:27 | 00:00:00 | |
| DM0DOS-11 | 2026-09-02 00:25:26 | 52.79344 | -0.11343 | 79° | 37km/h | 19609m | 6.1m/s | -49.4°C | 3.1% | 0hPa | 2.6V | 08:30:00 | 01:35:14 | 00:00:00 | |
| BIOWL1-15 | 2026-09-02 00:25:24 | 52.79347 | -0.11297 | 80° | 38km/h | 19626m | 6.5m/s | 0°C | 0% | 0hPa | 2.7V | 18:12:15 | 01:35:17 | 00:00:00 | |
| BIOWL1-15 | 2026-09-02 00:25:12 | 52.79331 | -0.11483 | 87° | 40km/h | 19562m | 6.1m/s | 0°C | 0% | 0hPa | 2.6V | 18:12:15 | 01:35:05 | 00:00:00 | |
| DM0DOS-11 | 2026-09-02 00:25:05 | 52.79338 | -0.11650 | 101° | 38km/h | 19502m | 5.8m/s | -49.7°C | 3.1% | 0hPa | 2.7V | 08:30:00 | 01:34:53 | 00:00:00 | |
| DJ2DS-15 | 2026-09-02 00:24:57 | 52.79345 | -0.11699 | 108° | 40km/h | 19486m | 6.0m/s | 0°C | 0% | 0hPa | 2.6V | 00:00:00 | 01:34:50 | 00:00:00 | |
| DM0DOS-11 | 2026-09-02 00:24:51 | 52.79374 | -0.11833 | 105° | 40km/h | 19443m | 5m/s | -49.9°C | 3.1% | 0hPa | 2.6V | 08:30:00 | 01:34:42 | 00:00:00 | |
| DM0DOS-11 | 2026-09-02 00:24:41 | 52.79394 | -0.11983 | 93° | 38km/h | 19393m | 6.1m/s | -50.3°C | 3.1% | 0hPa | 2.6V | 08:30:00 | 01:34:32 | 00:00:00 | |
| DJ2DS-15 | 2026-09-02 00:24:37 | 52.79394 | -0.12014 | 88° | 42km/h | 19382m | 6.0m/s | 0°C | 0% | 0hPa | 2.6V | 00:00:00 | 01:34:30 | 00:00:00 | |
| DM0DOS-11 | 2026-09-02 00:24:35 | 52.79382 | -0.12152 | 83° | 40km/h | 19340m | 5.5m/s | -51.2°C | 3.3% | 0hPa | 2.6V | 08:30:00 | 01:34:22 | 00:00:00 | |
| DM0DOS-11 | 2026-09-02 00:24:23 | 52.79374 | -0.12318 | 79° | 46km/h | 19291m | 5m/s | -51.4°C | 3.3% | 0hPa | 2.6V | 08:30:00 | 01:34:12 | 00:00:00 | |
| DM0DOS-11 | 2026-09-02 00:24:05 | 52.79355 | -0.12654 | 81° | 44km/h | 19205m | 4.2m/s | -52.5°C | 3.6% | 0hPa | 2.6V | 08:30:00 | 01:33:53 | 00:00:00 | |
| DM0DOS-11 | 2026-09-02 00:23:54 | 52.79357 | -0.12817 | 97° | 26km/h | 19152m | 4.1m/s | -52.4°C | 3.6% | 0hPa | 2.6V | 08:30:00 | 01:33:42 | 00:00:00 | |
| DM0DOS-11 | 2026-09-02 00:23:44 | 52.79360 | -0.12942 | 93° | 29km/h | 19105m | 5.3m/s | -52.3°C | 3.5% | 0hPa | 2.6V | 08:30:00 | 01:33:32 | 00:00:00 | |
| DJ2DS-15 | 2026-09-02 00:23:44 | 52.79358 | -0.12876 | 87° | 37km/h | 19128m | 4.7m/s | 0°C | 0% | 0hPa | 2.6V | 00:00:00 | 01:33:37 | 00:00:00 | |
| DM0DOS-11 | 2026-09-02 00:23:34 | 52.79369 | -0.13081 | 95° | 40km/h | 19058m | 4.4m/s | -52.7°C | 3.6% | 0hPa | 2.6V | 08:30:00 | 01:33:22 | 00:00:00 | |
| DM0DOS-11 | 2026-09-02 00:23:24 | 52.79387 | -0.13236 | 104° | 42km/h | 19009m | 4.6m/s | -52.6°C | 3.6% | 0hPa | 2.6V | 08:30:00 | 01:33:12 | 00:00:00 | |
| DJ2DS-15 | 2026-09-02 00:23:21 | 52.79381 | -0.13203 | 105° | 40km/h | 19019m | 3.3m/s | 0°C | 0% | 0hPa | 2.6V | 00:00:00 | 01:33:14 | 00:00:00 | |
| DM0DOS-11 | 2026-09-02 00:23:10 | 52.79410 | -0.13390 | 99° | 37km/h | 18964m | 5m/s | -53°C | 3.6% | 0hPa | 2.6V | 08:30:00 | 01:33:02 | 00:00:00 | |
| DM0DOS-11 | 2026-09-02 00:23:04 | 52.79425 | -0.13564 | 102° | 42km/h | 18916m | 5.3m/s | -53.6°C | 3.8% | 0hPa | 2.6V | 08:30:00 | 01:32:52 | 00:00:00 | |
| BIOWL1-15 | 2026-09-02 00:23:04 | 52.79418 | -0.13508 | 100° | 46km/h | 18931m | 5.6m/s | -53.4°C | 0% | 0hPa | 2.7V | 18:12:15 | 01:32:55 | 00:00:00 | |
| BIOWL9-15 | 2026-09-02 00:23:01 | 52.79420 | -0.13527 | 100° | 46km/h | 18926m | 4.0m/s | -53.4°C | 0.8% | -1.0hPa | 2.6V | 00:00:00 | 00:00:00 | 00:00:00 | |
| DJ2DS-15 | 2026-09-02 00:22:59 | 52.79425 | -0.13564 | 103° | 40km/h | 18916m | 5.2m/s | 0°C | 0% | 0hPa | 2.6V | 00:00:00 | 01:32:52 | 00:00:00 | |
| DM0DOS-11 | 2026-09-02 00:22:51 | 52.79449 | -0.13744 | 112° | 38km/h | 18865m | 5.6m/s | -53.4°C | 3.8% | 0hPa | 2.6V | 08:30:00 | 01:32:41 | 00:00:00 | |
| BIOWL1-15 | 2026-09-02 00:22:50 | 52.79449 | -0.13744 | 112° | 38km/h | 18865m | 5.6m/s | -53.4°C | 0% | 0hPa | 2.6V | 18:12:15 | 01:32:41 | 00:00:00 | |
| DM0DOS-11 | 2026-09-02 00:22:43 | 52.79483 | -0.13887 | 103° | 38km/h | 18815m | 4m/s | -53.3°C | 3.8% | 0hPa | 2.6V | 08:30:00 | 01:32:31 | 00:00:00 | |
| BIOWL1-15 | 2026-09-02 00:22:40 | 52.79488 | -0.13917 | 109° | 33km/h | 18805m | 5.5m/s | -53.2°C | 0% | 0hPa | 2.7V | 18:12:15 | 01:32:29 | 00:00:00 | |
| DM0DOS-11 | 2026-09-02 00:22:33 | 52.79520 | -0.14012 | 117° | 35km/h | 18767m | 4.4m/s | -53°C | 3.7% | 0hPa | 2.6V | 08:30:00 | 01:32:21 | 00:00:00 | |
| BIOWL1-15 | 2026-09-02 00:22:27 | 52.79524 | -0.14024 | 118° | 35km/h | 18763m | 4.9m/s | -53°C | 0% | 0hPa | 2.7V | 18:12:15 | 01:32:20 | 00:00:00 | |
| DM0DOS-11 | 2026-09-02 00:22:19 | 52.79548 | -0.14137 | 113° | 35km/h | 18720m | 3.9m/s | -52.9°C | 3.6% | 0hPa | 2.6V | 08:30:00 | 01:32:11 | 00:00:00 | |
| BIOWL1-15 | 2026-09-02 00:22:17 | 52.79551 | -0.14150 | 115° | 37km/h | 18716m | 5.3m/s | -53°C | 0% | 0hPa | 2.7V | 18:12:15 | 01:32:10 | 00:00:00 | |
| DM0DOS-11 | 2026-09-02 00:22:13 | 52.79581 | -0.14280 | 115° | 37km/h | 18671m | 4.7m/s | -53°C | 3.7% | 0hPa | 2.6V | 08:30:00 | 01:32:01 | 00:00:00 | |
| BIOWL1-15 | 2026-09-02 00:22:07 | 52.79588 | -0.14308 | 110° | 37km/h | 18663m | 5.5m/s | -53°C | 0% | 0hPa | 2.7V | 18:12:15 | 01:31:59 | 00:00:00 | |
| DM0DOS-11 | 2026-09-02 00:22:03 | 52.79612 | -0.14440 | 112° | 44km/h | 18626m | 4.9m/s | -52.9°C | 3.7% | 0hPa | 2.6V | 08:30:00 | 01:31:51 | 00:00:00 | |
| BIOWL1-15 | 2026-09-02 00:21:57 | 52.79619 | -0.14473 | 111° | 42km/h | 18617m | 3.8m/s | -52.8°C | 0% | 0hPa | 2.7V | 18:12:15 | 01:31:49 | 00:00:00 | |
| DM0DOS-11 | 2026-09-02 00:21:50 | 52.79636 | -0.14608 | 100° | 42km/h | 18579m | 3.8m/s | -52.9°C | 3.7% | 0hPa | 2.6V | 08:30:00 | 01:31:41 | 00:00:00 | |
| BIOWL1-15 | 2026-09-02 00:21:46 | 52.79646 | -0.14690 | 103° | 42km/h | 18555m | 4.6m/s | -52.8°C | 0% | 0hPa | 2.6V | 18:12:15 | 01:31:36 | 00:00:00 | |
| DM0DOS-11 | 2026-09-02 00:21:43 | 52.79658 | -0.14770 | 106° | 38km/h | 18533m | 5.4m/s | -52.6°C | 3.6% | 0hPa | 2.6V | 08:30:00 | 01:31:31 | 00:00:00 | |
| BIOWL1-15 | 2026-09-02 00:21:34 | 52.79716 | -0.15069 | 109° | 27km/h | 18421m | 3.7m/s | -52.2°C | 0% | 0hPa | 2.6V | 18:12:15 | 01:31:07 | 00:00:00 | |
| DM0DOS-11 | 2026-09-02 00:21:29 | 52.79684 | -0.14903 | 103° | 33km/h | 18486m | 3.7m/s | -52.6°C | 3.7% | 0hPa | 2.6V | 08:30:00 | 01:31:21 | 00:00:00 | |
| BIOWL1-15 | 2026-09-02 00:21:23 | 52.79718 | -0.15080 | 110° | 26km/h | 18416m | 5.4m/s | -52.2°C | 0% | 0hPa | 2.6V | 18:12:15 | 01:31:06 | 00:00:00 | |
| DM0DOS-11 | 2026-09-02 00:21:13 | 52.79731 | -0.15130 | 109° | 24km/h | 18392m | 5.8m/s | -52°C | 3.6% | 0hPa | 2.6V | 08:30:00 | 01:31:01 | 00:00:00 | |
| BIOWL1-15 | 2026-09-02 00:21:10 | 52.79742 | -0.15183 | 112° | 20km/h | 18364m | 4.8m/s | 0°C | 0% | 0hPa | 2.7V | 18:12:15 | 01:30:55 | 00:00:00 | |
| DM0DOS-11 | 2026-09-02 00:21:03 | 52.79751 | -0.15216 | 111° | 24km/h | 18345m | 4.3m/s | -51.8°C | 3.5% | 0hPa | 2.6V | 08:30:00 | 01:30:51 | 00:00:00 | |
| BIOWL1-15 | 2026-09-02 00:20:55 | 52.79756 | -0.15247 | 101° | 29km/h | 18331m | 4.8m/s | 0°C | 0% | 0hPa | 2.6V | 18:12:15 | 01:30:48 | 00:00:00 | |
| DM0DOS-11 | 2026-09-02 00:20:54 | 52.79763 | -0.15323 | 108° | 24km/h | 18298m | 4.6m/s | -51.9°C | 3.5% | 0hPa | 2.6V | 08:30:00 | 01:30:41 | 00:00:00 | |
| BIOWL1-15 | 2026-09-02 00:20:45 | 52.79775 | -0.15358 | 122° | 27km/h | 18279m | 6.1m/s | 0°C | 0% | 0hPa | 2.6V | 18:12:15 | 01:30:37 | 00:00:00 | |
| DM0DOS-11 | 2026-09-02 00:20:44 | 52.79792 | -0.15439 | 105° | 33km/h | 18250m | 4.6m/s | -51.7°C | 3.5% | 0hPa | 2.6V | 08:30:00 | 01:30:31 | 00:00:00 | |
| BIOWL1-15 | 2026-09-02 00:20:33 | 52.79816 | -0.15556 | 114° | 38km/h | 18211m | 4.3m/s | 0°C | 0% | 0hPa | 2.6V | 18:12:15 | 01:30:23 | 00:00:00 | |
| BIOWL1-15 | 2026-09-02 00:20:24 | 52.79844 | -0.15714 | 106° | 44km/h | 18164m | 5.5m/s | 0°C | 0% | 0hPa | 2.6V | 18:12:15 | 01:30:13 | 00:00:00 | |
| DM0DOS-11 | 2026-09-02 00:20:22 | 52.79853 | -0.15765 | 106° | 38km/h | 18150m | 5.3m/s | -51.1°C | 3.4% | 0hPa | 2.7V | 08:30:00 | 01:30:10 | 00:00:00 | |
| BIOWL1-15 | 2026-09-02 00:20:16 | 52.79866 | -0.15842 | 101° | 42km/h | 18128m | 3.8m/s | 0°C | 0% | 0hPa | 2.7V | 18:12:15 | 01:30:05 | 00:00:00 | |
| DM0DOS-11 | 2026-09-02 00:20:02 | 52.79896 | -0.16102 | 93° | 44km/h | 18062m | 4.3m/s | -51.7°C | 3.4% | 0hPa | 2.7V | 08:30:00 | 01:29:50 | 00:00:00 | |
| BIOWL1-15 | 2026-09-02 00:20:02 | 52.79892 | -0.16197 | 84° | 47km/h | 18039m | 4.8m/s | 0°C | 0% | 0hPa | 2.7V | 18:12:15 | 01:29:45 | 00:00:00 | |
| BIOWL1-15 | 2026-09-02 00:19:53 | 52.79891 | -0.16217 | 86° | 47km/h | 18035m | 3.1m/s | 0°C | 0% | 0hPa | 2.7V | 18:12:15 | 01:29:44 | 00:00:00 | |
| DM0DOS-11 | 2026-09-02 00:19:52 | 52.79887 | -0.16288 | 88° | 42km/h | 18017m | 5.1m/s | -52°C | 3.5% | 0hPa | 2.7V | 08:30:00 | 01:29:40 | 00:00:00 | |
| DM0DOS-11 | 2026-09-02 00:19:42 | 52.79878 | -0.16460 | 86° | 40km/h | 17973m | 3.6m/s | -52°C | 3.5% | 0hPa | 2.7V | 08:30:00 | 01:29:30 | 00:00:00 | |
| DM0DOS-11 | 2026-09-02 00:19:32 | 52.79881 | -0.16627 | 98° | 38km/h | 17927m | 4.5m/s | -51.9°C | 3.5% | 0hPa | 2.7V | 08:30:00 | 01:29:20 | 00:00:00 | |
| DM0DOS-11 | 2026-09-02 00:19:22 | 52.79897 | -0.16787 | 100° | 40km/h | 17882m | 5m/s | -51.9°C | 3.5% | 0hPa | 2.7V | 08:30:00 | 01:29:10 | 00:00:00 | |
| DM0DOS-11 | 2026-09-02 00:19:05 | 52.79941 | -0.17036 | 102° | 40km/h | 17809m | 4.5m/s | -52.2°C | 3.6% | 0hPa | 2.7V | 08:30:00 | 01:28:54 | 00:00:00 | |
| DM0DOS-11 | 2026-09-02 00:18:55 | 52.79965 | -0.17210 | 102° | 46km/h | 17763m | 4.2m/s | -51.9°C | 3.5% | 0hPa | 2.7V | 08:30:00 | 01:28:44 | 00:00:00 | |
| DM0DOS-11 | 2026-09-02 00:18:45 | 52.79978 | -0.17383 | 99° | 44km/h | 17716m | 5.2m/s | -51.7°C | 3.5% | 0hPa | 2.7V | 08:30:00 | 01:28:34 | 00:00:00 | |
| DM0DOS-11 | 2026-09-02 00:18:35 | 52.79986 | -0.17563 | 90° | 40km/h | 17667m | 4.5m/s | -51.9°C | 3.5% | 0hPa | 2.7V | 08:30:00 | 01:28:24 | 00:00:00 | |
| DM0DOS-11 | 2026-09-02 00:18:22 | 52.79979 | -0.17737 | 73° | 38km/h | 17619m | 3.3m/s | -51.8°C | 3.4% | 0hPa | 2.7V | 08:30:00 | 01:28:14 | 00:00:00 | |
| DM0DOS-11 | 2026-09-02 00:18:15 | 52.79966 | -0.17902 | 93° | 38km/h | 17571m | 5.3m/s | -52.3°C | 3.6% | 0hPa | 2.7V | 08:30:00 | 01:28:04 | 00:00:00 | |
| DM0DOS-11 | 2026-09-02 00:18:06 | 52.79961 | -0.18054 | 94° | 40km/h | 17521m | 4.5m/s | -52.4°C | 3.7% | 0hPa | 2.7V | 08:30:00 | 01:27:54 | 00:00:00 | |
| DM0DOS-11 | 2026-09-02 00:17:55 | 52.79966 | -0.18225 | 91° | 47km/h | 17470m | 5.6m/s | -52°C | 3.6% | 0hPa | 2.7V | 08:30:00 | 01:27:44 | 00:00:00 | |
| DM0DOS-11 | 2026-09-02 00:17:44 | 52.79977 | -0.18401 | 99° | 44km/h | 17419m | 4.7m/s | -52°C | 3.5% | 0hPa | 2.6V | 08:30:00 | 01:27:34 | 00:00:00 | |
| DM0DOS-11 | 2026-09-02 00:17:35 | 52.79993 | -0.18588 | 105° | 46km/h | 17366m | 5.4m/s | -51.7°C | 3.4% | 0hPa | 2.6V | 08:30:00 | 01:27:24 | 00:00:00 | |
| DM0DOS-11 | 2026-09-02 00:17:24 | 52.80018 | -0.18785 | 105° | 51km/h | 17313m | 4.9m/s | -52°C | 3.5% | 0hPa | 2.6V | 08:30:00 | 01:27:14 | 00:00:00 | |
| DM0DOS-11 | 2026-09-02 00:17:14 | 52.80054 | -0.19007 | 103° | 57km/h | 17261m | 3.9m/s | -52.1°C | 3.6% | 0hPa | 2.6V | 08:30:00 | 01:27:04 | 00:00:00 | |
| DM0DOS-11 | 2026-09-02 00:17:05 | 52.80084 | -0.19254 | 98° | 64km/h | 17209m | 5.4m/s | -52.2°C | 3.6% | 0hPa | 2.6V | 08:30:00 | 01:26:54 | 00:00:00 | |
| DM0DOS-11 | 2026-09-02 00:16:56 | 52.80106 | -0.19485 | 98° | 58km/h | 17157m | 5.3m/s | -52.1°C | 3.5% | 0hPa | 2.6V | 08:30:00 | 01:26:44 | 00:00:00 | |
| DM0DOS-11 | 2026-09-02 00:16:45 | 52.80117 | -0.19715 | 97° | 51km/h | 17102m | 4.5m/s | -52.2°C | 3.5% | 0hPa | 2.7V | 08:30:00 | 01:26:34 | 00:00:00 | |
| DM0DOS-11 | 2026-09-02 00:16:34 | 52.80127 | -0.19930 | 91° | 49km/h | 17049m | 4.3m/s | -52.6°C | 3.6% | 0hPa | 2.7V | 08:30:00 | 01:26:24 | 00:00:00 | |
| DM0DOS-11 | 2026-09-02 00:16:24 | 52.80120 | -0.20142 | 83° | 49km/h | 16996m | 5.7m/s | -52.7°C | 3.7% | 0hPa | 2.6V | 08:30:00 | 01:26:14 | 00:00:00 | |
| DM0DOS-11 | 2026-09-02 00:15:50 | 52.80115 | -0.20755 | 96° | 49km/h | 16834m | 5.3m/s | -52.6°C | 3.7% | 0hPa | 2.7V | 08:30:00 | 01:25:42 | 00:00:00 | |
| DM0DOS-11 | 2026-09-02 00:15:34 | 52.80134 | -0.21174 | 88° | 57km/h | 16743m | 4.8m/s | -52.4°C | 3.7% | 0hPa | 2.6V | 08:30:00 | 01:25:23 | 00:00:00 | |
| DM0DOS-11 | 2026-09-02 00:15:25 | 52.80130 | -0.21413 | 93° | 55km/h | 16697m | 5.1m/s | -52.5°C | 3.7% | 0hPa | 2.6V | 08:30:00 | 01:25:13 | 00:00:00 | |
| DM0DOS-11 | 2026-09-02 00:15:15 | 52.80125 | -0.21634 | 87° | 57km/h | 16651m | 5.1m/s | -52.8°C | 3.8% | 0hPa | 2.7V | 08:30:00 | 01:25:03 | 00:00:00 | |
| DM0DOS-11 | 2026-09-02 00:15:05 | 52.80120 | -0.21847 | 81° | 49km/h | 16606m | 4.9m/s | -52.8°C | 3.8% | 0hPa | 2.7V | 08:30:00 | 01:24:53 | 00:00:00 | |
| DM0DOS-11 | 2026-09-02 00:14:55 | 52.80113 | -0.22050 | 92° | 44km/h | 16561m | 4.1m/s | -52.8°C | 3.8% | 0hPa | 2.6V | 08:30:00 | 01:24:43 | 00:00:00 | |
| DM0DOS-11 | 2026-09-02 00:14:45 | 52.80105 | -0.22242 | 84° | 44km/h | 16516m | 3.8m/s | -52.8°C | 3.9% | 0hPa | 2.6V | 08:30:00 | 01:24:33 | 00:00:00 | |
| DM0DOS-11 | 2026-09-02 00:14:35 | 52.80098 | -0.22404 | 83° | 38km/h | 16471m | 4.6m/s | -52.5°C | 3.7% | 0hPa | 2.7V | 08:30:00 | 01:24:23 | 00:00:00 | |
| DM0DOS-11 | 2026-09-02 00:14:25 | 52.80099 | -0.22586 | 97° | 44km/h | 16426m | 4m/s | 0°C | 0% | 0hPa | 2.6V | 08:30:00 | 01:24:13 | 00:00:00 | |
| DM0DOS-11 | 2026-09-02 00:14:12 | 52.80106 | -0.22774 | 97° | 51km/h | 16380m | 3.6m/s | 0°C | 0% | 0hPa | 2.6V | 00:00:00 | 01:24:03 | 00:00:00 | |
| DM0DOS-11 | 2026-09-02 00:14:05 | 52.80116 | -0.22979 | 93° | 57km/h | 16337m | 4.2m/s | 0°C | 0% | 0hPa | 2.7V | 00:00:00 | 01:23:53 | 00:00:00 | |
| DM0DOS-11 | 2026-09-02 00:13:54 | 52.80121 | -0.23221 | 95° | 51km/h | 16290m | 4m/s | 0°C | 0% | 0hPa | 2.7V | 00:00:00 | 01:23:42 | 00:00:00 | |
| DM0DOS-11 | 2026-09-02 00:13:44 | 52.80134 | -0.23426 | 95° | 46km/h | 16247m | 5.2m/s | 0°C | 0% | 0hPa | 2.6V | 00:00:00 | 01:23:32 | 00:00:00 |